<?xml version='1.0' encoding='UTF-8'?><gpx version="1.1" creator="JPX - https://github.com/jenetics/jpx" xmlns="http://www.topografix.com/GPX/1/1"><trk><trkseg><trkpt lat="43.5261067" lon="11.5741133"><ele>145.0</ele><time>2026-04-04T10:18:29.706Z</time></trkpt><trkpt lat="43.5261667" lon="11.5740867"><ele>145.0</ele><time>2026-04-04T10:18:31.707Z</time></trkpt><trkpt lat="43.52622" lon="11.57404"><ele>145.0</ele><time>2026-04-04T10:18:32.707Z</time></trkpt><trkpt lat="43.52633" lon="11.57392"><ele>145.0</ele><time>2026-04-04T10:18:34.706Z</time></trkpt><trkpt lat="43.526395" lon="11.5738583"><ele>145.0</ele><time>2026-04-04T10:18:35.707Z</time></trkpt><trkpt lat="43.5264517" lon="11.5738183"><ele>145.0</ele><time>2026-04-04T10:18:36.707Z</time></trkpt><trkpt lat="43.526535" lon="11.5739033"><ele>145.2</ele><time>2026-04-04T10:18:38.707Z</time></trkpt><trkpt lat="43.5265933" lon="11.5740183"><ele>145.4</ele><time>2026-04-04T10:18:40.707Z</time></trkpt><trkpt lat="43.52669" lon="11.5740017"><ele>145.6</ele><time>2026-04-04T10:18:42.707Z</time></trkpt><trkpt lat="43.526745" lon="11.5739517"><ele>145.8</ele><time>2026-04-04T10:18:43.707Z</time></trkpt><trkpt lat="43.526805" lon="11.573875"><ele>146.0</ele><time>2026-04-04T10:18:44.707Z</time></trkpt><trkpt lat="43.5269017" lon="11.5737817"><ele>146.0</ele><time>2026-04-04T10:18:46.707Z</time></trkpt><trkpt lat="43.5269533" lon="11.573725"><ele>146.0</ele><time>2026-04-04T10:18:48.707Z</time></trkpt><trkpt lat="43.5269583" lon="11.5736167"><ele>146.0</ele><time>2026-04-04T10:18:50.707Z</time></trkpt><trkpt lat="43.5268983" lon="11.5734583"><ele>146.0</ele><time>2026-04-04T10:18:52.707Z</time></trkpt><trkpt lat="43.5268583" lon="11.573375"><ele>146.0</ele><time>2026-04-04T10:18:53.706Z</time></trkpt><trkpt lat="43.5268183" lon="11.573285"><ele>146.0</ele><time>2026-04-04T10:18:54.706Z</time></trkpt><trkpt lat="43.5267617" lon="11.5732017"><ele>145.83333333333331</ele><time>2026-04-04T10:18:55.707Z</time></trkpt><trkpt lat="43.5267067" lon="11.573115"><ele>145.66666666666666</ele><time>2026-04-04T10:18:56.706Z</time></trkpt><trkpt lat="43.5266583" lon="11.5729967"><ele>145.5</ele><time>2026-04-04T10:18:57.706Z</time></trkpt><trkpt lat="43.5265967" lon="11.5729017"><ele>145.33333333333334</ele><time>2026-04-04T10:18:58.706Z</time></trkpt><trkpt lat="43.5265467" lon="11.5728033"><ele>145.16666666666669</ele><time>2026-04-04T10:18:59.707Z</time></trkpt><trkpt lat="43.5264933" lon="11.5727133"><ele>145.0</ele><time>2026-04-04T10:19:00.707Z</time></trkpt><trkpt lat="43.5264467" lon="11.5726283"><ele>145.0</ele><time>2026-04-04T10:19:01.706Z</time></trkpt><trkpt lat="43.5264" lon="11.5724883"><ele>145.0</ele><time>2026-04-04T10:19:03.707Z</time></trkpt><trkpt lat="43.5264433" lon="11.57237"><ele>145.0</ele><time>2026-04-04T10:19:05.707Z</time></trkpt><trkpt lat="43.5264983" lon="11.5723183"><ele>145.0</ele><time>2026-04-04T10:19:06.706Z</time></trkpt><trkpt lat="43.5265683" lon="11.5722633"><ele>145.0</ele><time>2026-04-04T10:19:07.706Z</time></trkpt><trkpt lat="43.5266283" lon="11.5722117"><ele>145.0</ele><time>2026-04-04T10:19:08.707Z</time></trkpt><trkpt lat="43.5266883" lon="11.5721617"><ele>145.0</ele><time>2026-04-04T10:19:09.706Z</time></trkpt><trkpt lat="43.52676" lon="11.572075"><ele>145.0</ele><time>2026-04-04T10:19:11.707Z</time></trkpt><trkpt lat="43.5268117" lon="11.57198"><ele>145.0</ele><time>2026-04-04T10:19:15.706Z</time></trkpt><trkpt lat="43.526795" lon="11.5718633"><ele>145.0</ele><time>2026-04-04T10:19:17.707Z</time></trkpt><trkpt lat="43.52676" lon="11.57179"><ele>145.0</ele><time>2026-04-04T10:19:18.706Z</time></trkpt><trkpt lat="43.5267167" lon="11.5717083"><ele>145.0</ele><time>2026-04-04T10:19:19.707Z</time></trkpt><trkpt lat="43.526665" lon="11.571605"><ele>145.0</ele><time>2026-04-04T10:19:20.707Z</time></trkpt><trkpt lat="43.5266117" lon="11.5714933"><ele>145.0</ele><time>2026-04-04T10:19:21.707Z</time></trkpt><trkpt lat="43.5265533" lon="11.5713667"><ele>145.0</ele><time>2026-04-04T10:19:22.707Z</time></trkpt><trkpt lat="43.5264967" lon="11.5712433"><ele>145.0</ele><time>2026-04-04T10:19:23.707Z</time></trkpt><trkpt lat="43.52643" lon="11.571115"><ele>145.0</ele><time>2026-04-04T10:19:24.706Z</time></trkpt><trkpt lat="43.526365" lon="11.5709783"><ele>145.0</ele><time>2026-04-04T10:19:25.707Z</time></trkpt><trkpt lat="43.5262933" lon="11.57083"><ele>145.0</ele><time>2026-04-04T10:19:26.707Z</time></trkpt><trkpt lat="43.5262267" lon="11.5706933"><ele>145.0</ele><time>2026-04-04T10:19:27.707Z</time></trkpt><trkpt lat="43.5261617" lon="11.57057"><ele>145.0</ele><time>2026-04-04T10:19:28.706Z</time></trkpt><trkpt lat="43.5260983" lon="11.570445"><ele>145.2</ele><time>2026-04-04T10:19:29.707Z</time></trkpt><trkpt lat="43.52605" lon="11.570345"><ele>145.4</ele><time>2026-04-04T10:19:30.707Z</time></trkpt><trkpt lat="43.526045" lon="11.57021"><ele>145.6</ele><time>2026-04-04T10:19:32.707Z</time></trkpt><trkpt lat="43.5261383" lon="11.5701083"><ele>145.8</ele><time>2026-04-04T10:19:34.707Z</time></trkpt><trkpt lat="43.5261983" lon="11.570045"><ele>146.0</ele><time>2026-04-04T10:19:35.707Z</time></trkpt><trkpt lat="43.5262733" lon="11.5699667"><ele>146.0</ele><time>2026-04-04T10:19:36.707Z</time></trkpt><trkpt lat="43.5263533" lon="11.569885"><ele>146.0</ele><time>2026-04-04T10:19:37.707Z</time></trkpt><trkpt lat="43.5264483" lon="11.5698017"><ele>146.0</ele><time>2026-04-04T10:19:38.707Z</time></trkpt><trkpt lat="43.5265467" lon="11.5697117"><ele>146.0</ele><time>2026-04-04T10:19:39.706Z</time></trkpt><trkpt lat="43.5266433" lon="11.5696267"><ele>146.0</ele><time>2026-04-04T10:19:40.706Z</time></trkpt><trkpt lat="43.5267283" lon="11.5695483"><ele>146.16666666666666</ele><time>2026-04-04T10:19:41.707Z</time></trkpt><trkpt lat="43.526795" lon="11.5694833"><ele>146.33333333333331</ele><time>2026-04-04T10:19:42.707Z</time></trkpt><trkpt lat="43.526855" lon="11.569415"><ele>146.5</ele><time>2026-04-04T10:19:43.707Z</time></trkpt><trkpt lat="43.5269017" lon="11.5693467"><ele>146.66666666666666</ele><time>2026-04-04T10:19:49.706Z</time></trkpt><trkpt lat="43.5269433" lon="11.56925"><ele>146.83333333333334</ele><time>2026-04-04T10:19:52.706Z</time></trkpt><trkpt lat="43.5269217" lon="11.569145"><ele>147.0</ele><time>2026-04-04T10:19:54.706Z</time></trkpt><trkpt lat="43.5268517" lon="11.5689783"><ele>147.0</ele><time>2026-04-04T10:19:56.706Z</time></trkpt><trkpt lat="43.5267933" lon="11.5688733"><ele>147.0</ele><time>2026-04-04T10:19:57.706Z</time></trkpt><trkpt lat="43.52673" lon="11.5687617"><ele>147.0</ele><time>2026-04-04T10:19:58.706Z</time></trkpt><trkpt lat="43.5266567" lon="11.5686517"><ele>147.0</ele><time>2026-04-04T10:19:59.705Z</time></trkpt><trkpt lat="43.5266" lon="11.5685533"><ele>147.0</ele><time>2026-04-04T10:20:00.705Z</time></trkpt><trkpt lat="43.5265583" lon="11.568465"><ele>147.0</ele><time>2026-04-04T10:20:01.706Z</time></trkpt><trkpt lat="43.5265" lon="11.5683217"><ele>147.0</ele><time>2026-04-04T10:20:03.705Z</time></trkpt><trkpt lat="43.5264683" lon="11.5681867"><ele>147.0</ele><time>2026-04-04T10:20:05.706Z</time></trkpt><trkpt lat="43.5265467" lon="11.5680683"><ele>147.0</ele><time>2026-04-04T10:20:07.706Z</time></trkpt><trkpt lat="43.5266117" lon="11.568005"><ele>147.0</ele><time>2026-04-04T10:20:08.705Z</time></trkpt><trkpt lat="43.5266917" lon="11.56793"><ele>146.75</ele><time>2026-04-04T10:20:09.706Z</time></trkpt><trkpt lat="43.52678" lon="11.5678517"><ele>146.5</ele><time>2026-04-04T10:20:10.706Z</time></trkpt><trkpt lat="43.5268833" lon="11.5677567"><ele>146.25</ele><time>2026-04-04T10:20:11.706Z</time></trkpt><trkpt lat="43.5269867" lon="11.56766"><ele>146.0</ele><time>2026-04-04T10:20:12.706Z</time></trkpt><trkpt lat="43.527095" lon="11.56755"><ele>145.75</ele><time>2026-04-04T10:20:13.706Z</time></trkpt><trkpt lat="43.5272" lon="11.5674367"><ele>145.5</ele><time>2026-04-04T10:20:14.706Z</time></trkpt><trkpt lat="43.5273233" lon="11.5673283"><ele>145.25</ele><time>2026-04-04T10:20:15.705Z</time></trkpt><trkpt lat="43.5274433" lon="11.5672067"><ele>145.0</ele><time>2026-04-04T10:20:16.705Z</time></trkpt><trkpt lat="43.5275583" lon="11.56709"><ele>145.0</ele><time>2026-04-04T10:20:17.706Z</time></trkpt><trkpt lat="43.5276483" lon="11.567"><ele>145.0</ele><time>2026-04-04T10:20:18.706Z</time></trkpt><trkpt lat="43.52773" lon="11.5669417"><ele>145.0</ele><time>2026-04-04T10:20:19.706Z</time></trkpt><trkpt lat="43.527785" lon="11.5668983"><ele>145.0</ele><time>2026-04-04T10:20:20.706Z</time></trkpt><trkpt lat="43.527845" lon="11.5668483"><ele>145.0</ele><time>2026-04-04T10:20:22.706Z</time></trkpt><trkpt lat="43.527945" lon="11.566755"><ele>145.0</ele><time>2026-04-04T10:20:54.706Z</time></trkpt><trkpt lat="43.528" lon="11.5666817"><ele>145.0</ele><time>2026-04-04T10:20:55.706Z</time></trkpt><trkpt lat="43.5280683" lon="11.5665883"><ele>145.0</ele><time>2026-04-04T10:20:56.706Z</time></trkpt><trkpt lat="43.5281583" lon="11.5665"><ele>145.0</ele><time>2026-04-04T10:20:57.705Z</time></trkpt><trkpt lat="43.52825" lon="11.56639"><ele>145.0</ele><time>2026-04-04T10:20:58.705Z</time></trkpt><trkpt lat="43.5283533" lon="11.5662783"><ele>145.25</ele><time>2026-04-04T10:20:59.706Z</time></trkpt><trkpt lat="43.5284517" lon="11.5661767"><ele>145.5</ele><time>2026-04-04T10:21:00.706Z</time></trkpt><trkpt lat="43.5285633" lon="11.5660683"><ele>145.75</ele><time>2026-04-04T10:21:01.706Z</time></trkpt><trkpt lat="43.5286983" lon="11.5659317"><ele>146.0</ele><time>2026-04-04T10:21:02.705Z</time></trkpt><trkpt lat="43.5288167" lon="11.5658117"><ele>145.33333333333331</ele><time>2026-04-04T10:21:03.706Z</time></trkpt><trkpt lat="43.5289433" lon="11.5656917"><ele>144.66666666666666</ele><time>2026-04-04T10:21:04.705Z</time></trkpt><trkpt lat="43.5290733" lon="11.56557"><ele>144.0</ele><time>2026-04-04T10:21:05.705Z</time></trkpt><trkpt lat="43.5292" lon="11.5654533"><ele>144.25</ele><time>2026-04-04T10:21:06.706Z</time></trkpt><trkpt lat="43.529325" lon="11.5653367"><ele>144.5</ele><time>2026-04-04T10:21:07.705Z</time></trkpt><trkpt lat="43.52944" lon="11.5652233"><ele>144.75</ele><time>2026-04-04T10:21:08.706Z</time></trkpt><trkpt lat="43.5295467" lon="11.565105"><ele>145.0</ele><time>2026-04-04T10:21:09.706Z</time></trkpt><trkpt lat="43.5296617" lon="11.5649933"><ele>145.33333333333334</ele><time>2026-04-04T10:21:10.706Z</time></trkpt><trkpt lat="43.5297883" lon="11.5648733"><ele>145.66666666666666</ele><time>2026-04-04T10:21:11.706Z</time></trkpt><trkpt lat="43.5299167" lon="11.56474"><ele>146.0</ele><time>2026-04-04T10:21:12.705Z</time></trkpt><trkpt lat="43.530045" lon="11.5646"><ele>146.0</ele><time>2026-04-04T10:21:13.706Z</time></trkpt><trkpt lat="43.5301833" lon="11.5644783"><ele>146.0</ele><time>2026-04-04T10:21:14.705Z</time></trkpt><trkpt lat="43.5303167" lon="11.56435"><ele>146.0</ele><time>2026-04-04T10:21:15.706Z</time></trkpt><trkpt lat="43.5304433" lon="11.564255"><ele>146.0</ele><time>2026-04-04T10:21:16.706Z</time></trkpt><trkpt lat="43.5305633" lon="11.5641333"><ele>146.0</ele><time>2026-04-04T10:21:17.706Z</time></trkpt><trkpt lat="43.530675" lon="11.564025"><ele>146.0</ele><time>2026-04-04T10:21:18.706Z</time></trkpt><trkpt lat="43.5307917" lon="11.5639117"><ele>146.0</ele><time>2026-04-04T10:21:19.706Z</time></trkpt><trkpt lat="43.530915" lon="11.5637767"><ele>146.0</ele><time>2026-04-04T10:21:20.706Z</time></trkpt><trkpt lat="43.5310417" lon="11.5636383"><ele>146.0</ele><time>2026-04-04T10:21:21.706Z</time></trkpt><trkpt lat="43.5311817" lon="11.5635033"><ele>146.0</ele><time>2026-04-04T10:21:22.705Z</time></trkpt><trkpt lat="43.53132" lon="11.5633717"><ele>145.66666666666666</ele><time>2026-04-04T10:21:23.706Z</time></trkpt><trkpt lat="43.531465" lon="11.56325"><ele>145.33333333333334</ele><time>2026-04-04T10:21:24.705Z</time></trkpt><trkpt lat="43.5316033" lon="11.5631133"><ele>145.0</ele><time>2026-04-04T10:21:25.706Z</time></trkpt><trkpt lat="43.5317433" lon="11.562975"><ele>144.66666666666669</ele><time>2026-04-04T10:21:26.706Z</time></trkpt><trkpt lat="43.5318867" lon="11.5628283"><ele>144.33333333333334</ele><time>2026-04-04T10:21:27.705Z</time></trkpt><trkpt lat="43.5320233" lon="11.5626967"><ele>144.0</ele><time>2026-04-04T10:21:28.706Z</time></trkpt><trkpt lat="43.5321617" lon="11.5625617"><ele>144.0</ele><time>2026-04-04T10:21:29.706Z</time></trkpt><trkpt lat="43.53229" lon="11.562435"><ele>144.0</ele><time>2026-04-04T10:21:30.706Z</time></trkpt><trkpt lat="43.53242" lon="11.562295"><ele>144.0</ele><time>2026-04-04T10:21:31.706Z</time></trkpt><trkpt lat="43.53254" lon="11.5621483"><ele>144.0</ele><time>2026-04-04T10:21:32.706Z</time></trkpt><trkpt lat="43.5326767" lon="11.5620117"><ele>144.0</ele><time>2026-04-04T10:21:33.706Z</time></trkpt><trkpt lat="43.5328217" lon="11.5618717"><ele>144.0</ele><time>2026-04-04T10:21:34.706Z</time></trkpt><trkpt lat="43.532965" lon="11.5617383"><ele>143.33333333333334</ele><time>2026-04-04T10:21:35.706Z</time></trkpt><trkpt lat="43.5331133" lon="11.5615983"><ele>142.66666666666669</ele><time>2026-04-04T10:21:36.706Z</time></trkpt><trkpt lat="43.53327" lon="11.5614683"><ele>142.0</ele><time>2026-04-04T10:21:37.706Z</time></trkpt><trkpt lat="43.53342" lon="11.5613117"><ele>142.33333333333334</ele><time>2026-04-04T10:21:38.706Z</time></trkpt><trkpt lat="43.53356" lon="11.5611867"><ele>142.66666666666666</ele><time>2026-04-04T10:21:39.706Z</time></trkpt><trkpt lat="43.533705" lon="11.5610383"><ele>143.0</ele><time>2026-04-04T10:21:40.706Z</time></trkpt><trkpt lat="43.5338583" lon="11.5608917"><ele>143.33333333333331</ele><time>2026-04-04T10:21:41.705Z</time></trkpt><trkpt lat="43.5339983" lon="11.560755"><ele>143.66666666666666</ele><time>2026-04-04T10:21:42.706Z</time></trkpt><trkpt lat="43.5341367" lon="11.56062"><ele>144.0</ele><time>2026-04-04T10:21:43.706Z</time></trkpt><trkpt lat="43.5342633" lon="11.5605033"><ele>144.0</ele><time>2026-04-04T10:21:44.706Z</time></trkpt><trkpt lat="43.534385" lon="11.5604017"><ele>144.0</ele><time>2026-04-04T10:21:45.706Z</time></trkpt><trkpt lat="43.5345" lon="11.5603067"><ele>144.0</ele><time>2026-04-04T10:21:46.706Z</time></trkpt><trkpt lat="43.5345917" lon="11.5602433"><ele>144.0</ele><time>2026-04-04T10:21:47.705Z</time></trkpt><trkpt lat="43.5346583" lon="11.5602217"><ele>144.0</ele><time>2026-04-04T10:21:48.706Z</time></trkpt><trkpt lat="43.53474" lon="11.560225"><ele>143.8</ele><time>2026-04-04T10:21:50.706Z</time></trkpt><trkpt lat="43.5348467" lon="11.5602483"><ele>143.60000000000002</ele><time>2026-04-04T10:21:52.706Z</time></trkpt><trkpt lat="43.5349267" lon="11.560255"><ele>143.4</ele><time>2026-04-04T10:21:53.706Z</time></trkpt><trkpt lat="43.5350167" lon="11.560245"><ele>143.20000000000002</ele><time>2026-04-04T10:21:54.706Z</time></trkpt><trkpt lat="43.53511" lon="11.5601933"><ele>143.0</ele><time>2026-04-04T10:21:55.706Z</time></trkpt><trkpt lat="43.5351917" lon="11.5601033"><ele>143.0</ele><time>2026-04-04T10:21:56.706Z</time></trkpt><trkpt lat="43.53526" lon="11.5599567"><ele>143.0</ele><time>2026-04-04T10:21:57.706Z</time></trkpt><trkpt lat="43.5353217" lon="11.55978"><ele>143.0</ele><time>2026-04-04T10:21:58.706Z</time></trkpt><trkpt lat="43.5353817" lon="11.559605"><ele>143.0</ele><time>2026-04-04T10:21:59.706Z</time></trkpt><trkpt lat="43.5354633" lon="11.5594417"><ele>142.0</ele><time>2026-04-04T10:22:00.706Z</time></trkpt><trkpt lat="43.535555" lon="11.55929"><ele>141.0</ele><time>2026-04-04T10:22:01.705Z</time></trkpt><trkpt lat="43.5356717" lon="11.55915"><ele>140.0</ele><time>2026-04-04T10:22:02.705Z</time></trkpt><trkpt lat="43.53579" lon="11.5590167"><ele>140.0</ele><time>2026-04-04T10:22:03.706Z</time></trkpt><trkpt lat="43.5359117" lon="11.5588883"><ele>140.0</ele><time>2026-04-04T10:22:04.706Z</time></trkpt><trkpt lat="43.536045" lon="11.558755"><ele>140.0</ele><time>2026-04-04T10:22:05.706Z</time></trkpt><trkpt lat="43.5361817" lon="11.5586217"><ele>139.75</ele><time>2026-04-04T10:22:06.706Z</time></trkpt><trkpt lat="43.53631" lon="11.5585017"><ele>139.5</ele><time>2026-04-04T10:22:07.705Z</time></trkpt><trkpt lat="43.536425" lon="11.5583817"><ele>139.25</ele><time>2026-04-04T10:22:08.706Z</time></trkpt><trkpt lat="43.53652" lon="11.5582733"><ele>139.0</ele><time>2026-04-04T10:22:09.705Z</time></trkpt><trkpt lat="43.5366117" lon="11.558165"><ele>139.0</ele><time>2026-04-04T10:22:10.706Z</time></trkpt><trkpt lat="43.5367083" lon="11.5580583"><ele>139.0</ele><time>2026-04-04T10:22:11.706Z</time></trkpt><trkpt lat="43.5368017" lon="11.55795"><ele>139.0</ele><time>2026-04-04T10:22:12.705Z</time></trkpt><trkpt lat="43.53689" lon="11.5578317"><ele>139.0</ele><time>2026-04-04T10:22:13.706Z</time></trkpt><trkpt lat="43.5369783" lon="11.557695"><ele>138.5</ele><time>2026-04-04T10:22:14.706Z</time></trkpt><trkpt lat="43.537065" lon="11.55755"><ele>138.0</ele><time>2026-04-04T10:22:15.706Z</time></trkpt><trkpt lat="43.5371633" lon="11.557395"><ele>137.5</ele><time>2026-04-04T10:22:16.706Z</time></trkpt><trkpt lat="43.5372633" lon="11.5572383"><ele>137.0</ele><time>2026-04-04T10:22:17.705Z</time></trkpt><trkpt lat="43.537365" lon="11.5570683"><ele>137.66666666666666</ele><time>2026-04-04T10:22:18.706Z</time></trkpt><trkpt lat="43.537465" lon="11.5568983"><ele>138.33333333333334</ele><time>2026-04-04T10:22:19.705Z</time></trkpt><trkpt lat="43.53756" lon="11.5567033"><ele>139.0</ele><time>2026-04-04T10:22:20.705Z</time></trkpt><trkpt lat="43.53766" lon="11.556505"><ele>139.0</ele><time>2026-04-04T10:22:21.706Z</time></trkpt><trkpt lat="43.5377567" lon="11.55631"><ele>139.0</ele><time>2026-04-04T10:22:22.705Z</time></trkpt><trkpt lat="43.5378483" lon="11.5561067"><ele>139.0</ele><time>2026-04-04T10:22:23.706Z</time></trkpt><trkpt lat="43.5379433" lon="11.5559017"><ele>139.0</ele><time>2026-04-04T10:22:24.706Z</time></trkpt><trkpt lat="43.53805" lon="11.5557033"><ele>139.0</ele><time>2026-04-04T10:22:25.706Z</time></trkpt><trkpt lat="43.538145" lon="11.5555067"><ele>139.0</ele><time>2026-04-04T10:22:26.706Z</time></trkpt><trkpt lat="43.5382333" lon="11.5553183"><ele>139.25</ele><time>2026-04-04T10:22:27.705Z</time></trkpt><trkpt lat="43.5383133" lon="11.5551483"><ele>139.5</ele><time>2026-04-04T10:22:28.706Z</time></trkpt><trkpt lat="43.538385" lon="11.5550117"><ele>139.75</ele><time>2026-04-04T10:22:29.706Z</time></trkpt><trkpt lat="43.5384617" lon="11.5549033"><ele>140.0</ele><time>2026-04-04T10:22:30.706Z</time></trkpt><trkpt lat="43.5385467" lon="11.5548333"><ele>140.0</ele><time>2026-04-04T10:22:31.706Z</time></trkpt><trkpt lat="43.5386433" lon="11.5547717"><ele>140.0</ele><time>2026-04-04T10:22:32.706Z</time></trkpt><trkpt lat="43.538725" lon="11.55468"><ele>140.0</ele><time>2026-04-04T10:22:33.706Z</time></trkpt><trkpt lat="43.538775" lon="11.5545617"><ele>140.0</ele><time>2026-04-04T10:22:34.706Z</time></trkpt><trkpt lat="43.53879" lon="11.554415"><ele>140.0</ele><time>2026-04-04T10:22:35.706Z</time></trkpt><trkpt lat="43.5387933" lon="11.554265"><ele>139.6</ele><time>2026-04-04T10:22:36.706Z</time></trkpt><trkpt lat="43.538825" lon="11.554125"><ele>139.2</ele><time>2026-04-04T10:22:37.705Z</time></trkpt><trkpt lat="43.5388867" lon="11.5540033"><ele>138.8</ele><time>2026-04-04T10:22:38.706Z</time></trkpt><trkpt lat="43.5389567" lon="11.5538917"><ele>138.4</ele><time>2026-04-04T10:22:39.706Z</time></trkpt><trkpt lat="43.539025" lon="11.5537633"><ele>138.0</ele><time>2026-04-04T10:22:40.706Z</time></trkpt><trkpt lat="43.5391033" lon="11.5536233"><ele>139.0</ele><time>2026-04-04T10:22:41.706Z</time></trkpt><trkpt lat="43.539195" lon="11.55348"><ele>140.0</ele><time>2026-04-04T10:22:42.705Z</time></trkpt><trkpt lat="43.5392983" lon="11.5533283"><ele>141.0</ele><time>2026-04-04T10:22:43.706Z</time></trkpt><trkpt lat="43.5394033" lon="11.5531767"><ele>142.0</ele><time>2026-04-04T10:22:44.705Z</time></trkpt><trkpt lat="43.5394933" lon="11.5530417"><ele>141.0</ele><time>2026-04-04T10:22:45.706Z</time></trkpt><trkpt lat="43.5395967" lon="11.552905"><ele>140.0</ele><time>2026-04-04T10:22:46.705Z</time></trkpt><trkpt lat="43.5397017" lon="11.55277"><ele>139.0</ele><time>2026-04-04T10:22:47.705Z</time></trkpt><trkpt lat="43.539825" lon="11.552625"><ele>138.0</ele><time>2026-04-04T10:22:48.706Z</time></trkpt><trkpt lat="43.53995" lon="11.5524883"><ele>138.0</ele><time>2026-04-04T10:22:49.706Z</time></trkpt><trkpt lat="43.54008" lon="11.5523667"><ele>138.0</ele><time>2026-04-04T10:22:50.706Z</time></trkpt><trkpt lat="43.5402117" lon="11.5522367"><ele>138.0</ele><time>2026-04-04T10:22:51.706Z</time></trkpt><trkpt lat="43.5403467" lon="11.5521017"><ele>138.0</ele><time>2026-04-04T10:22:52.705Z</time></trkpt><trkpt lat="43.5404917" lon="11.5519767"><ele>138.0</ele><time>2026-04-04T10:22:53.706Z</time></trkpt><trkpt lat="43.5406367" lon="11.5518483"><ele>138.0</ele><time>2026-04-04T10:22:54.706Z</time></trkpt><trkpt lat="43.5407817" lon="11.551725"><ele>138.0</ele><time>2026-04-04T10:22:55.706Z</time></trkpt><trkpt lat="43.5409233" lon="11.5515933"><ele>138.0</ele><time>2026-04-04T10:22:56.706Z</time></trkpt><trkpt lat="43.541075" lon="11.5514617"><ele>138.0</ele><time>2026-04-04T10:22:57.706Z</time></trkpt><trkpt lat="43.5412283" lon="11.5513183"><ele>138.33333333333334</ele><time>2026-04-04T10:22:58.706Z</time></trkpt><trkpt lat="43.5413817" lon="11.5511983"><ele>138.66666666666669</ele><time>2026-04-04T10:22:59.706Z</time></trkpt><trkpt lat="43.5415283" lon="11.5510667"><ele>139.0</ele><time>2026-04-04T10:23:00.705Z</time></trkpt><trkpt lat="43.5416817" lon="11.5509383"><ele>139.0</ele><time>2026-04-04T10:23:01.706Z</time></trkpt><trkpt lat="43.541825" lon="11.550815"><ele>139.0</ele><time>2026-04-04T10:23:02.706Z</time></trkpt><trkpt lat="43.541985" lon="11.5506867"><ele>139.0</ele><time>2026-04-04T10:23:03.706Z</time></trkpt><trkpt lat="43.5421283" lon="11.5505617"><ele>138.66666666666669</ele><time>2026-04-04T10:23:04.706Z</time></trkpt><trkpt lat="43.54227" lon="11.550435"><ele>138.33333333333334</ele><time>2026-04-04T10:23:05.705Z</time></trkpt><trkpt lat="43.5424083" lon="11.55031"><ele>138.0</ele><time>2026-04-04T10:23:06.706Z</time></trkpt><trkpt lat="43.5425433" lon="11.5501767"><ele>138.66666666666666</ele><time>2026-04-04T10:23:07.706Z</time></trkpt><trkpt lat="43.5426933" lon="11.5500433"><ele>139.33333333333331</ele><time>2026-04-04T10:23:08.705Z</time></trkpt><trkpt lat="43.5428567" lon="11.5499067"><ele>140.0</ele><time>2026-04-04T10:23:09.706Z</time></trkpt><trkpt lat="43.5430217" lon="11.54978"><ele>140.0</ele><time>2026-04-04T10:23:10.705Z</time></trkpt><trkpt lat="43.5431783" lon="11.5496583"><ele>140.0</ele><time>2026-04-04T10:23:11.706Z</time></trkpt><trkpt lat="43.5433367" lon="11.54953"><ele>140.0</ele><time>2026-04-04T10:23:12.706Z</time></trkpt><trkpt lat="43.54346" lon="11.5494067"><ele>140.0</ele><time>2026-04-04T10:23:13.706Z</time></trkpt><trkpt lat="43.54359" lon="11.5492767"><ele>140.0</ele><time>2026-04-04T10:23:14.706Z</time></trkpt><trkpt lat="43.5437317" lon="11.5491517"><ele>140.0</ele><time>2026-04-04T10:23:15.705Z</time></trkpt><trkpt lat="43.543865" lon="11.54903"><ele>139.5</ele><time>2026-04-04T10:23:16.706Z</time></trkpt><trkpt lat="43.5439867" lon="11.54892"><ele>139.0</ele><time>2026-04-04T10:23:17.705Z</time></trkpt><trkpt lat="43.5441017" lon="11.5488183"><ele>138.5</ele><time>2026-04-04T10:23:18.706Z</time></trkpt><trkpt lat="43.54421" lon="11.5487233"><ele>138.0</ele><time>2026-04-04T10:23:19.706Z</time></trkpt><trkpt lat="43.54431" lon="11.5486383"><ele>138.0</ele><time>2026-04-04T10:23:20.706Z</time></trkpt><trkpt lat="43.544405" lon="11.54857"><ele>138.0</ele><time>2026-04-04T10:23:21.705Z</time></trkpt><trkpt lat="43.5444933" lon="11.54853"><ele>138.0</ele><time>2026-04-04T10:23:22.706Z</time></trkpt><trkpt lat="43.5445783" lon="11.548515"><ele>138.0</ele><time>2026-04-04T10:23:23.705Z</time></trkpt><trkpt lat="43.544655" lon="11.54853"><ele>138.0</ele><time>2026-04-04T10:23:24.706Z</time></trkpt><trkpt lat="43.5447383" lon="11.5485267"><ele>138.0</ele><time>2026-04-04T10:23:25.706Z</time></trkpt><trkpt lat="43.544815" lon="11.5485067"><ele>138.0</ele><time>2026-04-04T10:23:26.705Z</time></trkpt><trkpt lat="43.5448883" lon="11.5484617"><ele>138.0</ele><time>2026-04-04T10:23:27.705Z</time></trkpt><trkpt lat="43.5449433" lon="11.5483933"><ele>138.0</ele><time>2026-04-04T10:23:28.705Z</time></trkpt><trkpt lat="43.5449867" lon="11.5483133"><ele>138.0</ele><time>2026-04-04T10:23:29.706Z</time></trkpt><trkpt lat="43.5450117" lon="11.5482067"><ele>138.0</ele><time>2026-04-04T10:23:30.706Z</time></trkpt><trkpt lat="43.545035" lon="11.54809"><ele>138.0</ele><time>2026-04-04T10:23:31.705Z</time></trkpt><trkpt lat="43.5450767" lon="11.54799"><ele>138.0</ele><time>2026-04-04T10:23:32.705Z</time></trkpt><trkpt lat="43.5451317" lon="11.5478917"><ele>138.0</ele><time>2026-04-04T10:23:33.706Z</time></trkpt><trkpt lat="43.5452067" lon="11.5478017"><ele>138.0</ele><time>2026-04-04T10:23:34.706Z</time></trkpt><trkpt lat="43.5453067" lon="11.547715"><ele>138.0</ele><time>2026-04-04T10:23:35.705Z</time></trkpt><trkpt lat="43.5454183" lon="11.5476117"><ele>138.0</ele><time>2026-04-04T10:23:36.705Z</time></trkpt><trkpt lat="43.5455417" lon="11.5475083"><ele>137.66666666666666</ele><time>2026-04-04T10:23:37.706Z</time></trkpt><trkpt lat="43.545675" lon="11.5473867"><ele>137.33333333333331</ele><time>2026-04-04T10:23:38.705Z</time></trkpt><trkpt lat="43.5458183" lon="11.5472783"><ele>137.0</ele><time>2026-04-04T10:23:39.706Z</time></trkpt><trkpt lat="43.5459633" lon="11.5471483"><ele>137.0</ele><time>2026-04-04T10:23:40.706Z</time></trkpt><trkpt lat="43.5461183" lon="11.5469967"><ele>137.0</ele><time>2026-04-04T10:23:41.706Z</time></trkpt><trkpt lat="43.5462717" lon="11.5468567"><ele>137.0</ele><time>2026-04-04T10:23:42.705Z</time></trkpt><trkpt lat="43.5464283" lon="11.5467283"><ele>136.0</ele><time>2026-04-04T10:23:43.706Z</time></trkpt><trkpt lat="43.546585" lon="11.5466"><ele>135.0</ele><time>2026-04-04T10:23:44.706Z</time></trkpt><trkpt lat="43.5467383" lon="11.54647"><ele>134.0</ele><time>2026-04-04T10:23:45.706Z</time></trkpt><trkpt lat="43.5468767" lon="11.5463467"><ele>134.0</ele><time>2026-04-04T10:23:46.706Z</time></trkpt><trkpt lat="43.5470083" lon="11.5462267"><ele>134.0</ele><time>2026-04-04T10:23:47.705Z</time></trkpt><trkpt lat="43.54715" lon="11.546105"><ele>134.0</ele><time>2026-04-04T10:23:48.706Z</time></trkpt><trkpt lat="43.5472833" lon="11.5459817"><ele>134.25</ele><time>2026-04-04T10:23:49.706Z</time></trkpt><trkpt lat="43.5474133" lon="11.5458667"><ele>134.5</ele><time>2026-04-04T10:23:50.706Z</time></trkpt><trkpt lat="43.5475367" lon="11.54575"><ele>134.75</ele><time>2026-04-04T10:23:51.706Z</time></trkpt><trkpt lat="43.5476567" lon="11.545645"><ele>135.0</ele><time>2026-04-04T10:23:52.705Z</time></trkpt><trkpt lat="43.5477717" lon="11.5455433"><ele>135.25</ele><time>2026-04-04T10:23:53.706Z</time></trkpt><trkpt lat="43.5478883" lon="11.5454467"><ele>135.5</ele><time>2026-04-04T10:23:54.705Z</time></trkpt><trkpt lat="43.548" lon="11.5453417"><ele>135.75</ele><time>2026-04-04T10:23:55.706Z</time></trkpt><trkpt lat="43.5481133" lon="11.545235"><ele>136.0</ele><time>2026-04-04T10:23:56.706Z</time></trkpt><trkpt lat="43.5482217" lon="11.5451417"><ele>136.0</ele><time>2026-04-04T10:23:57.705Z</time></trkpt><trkpt lat="43.548325" lon="11.5450483"><ele>136.0</ele><time>2026-04-04T10:23:58.705Z</time></trkpt><trkpt lat="43.5484183" lon="11.54497"><ele>136.0</ele><time>2026-04-04T10:23:59.706Z</time></trkpt><trkpt lat="43.5485117" lon="11.5448817"><ele>136.0</ele><time>2026-04-04T10:24:00.706Z</time></trkpt><trkpt lat="43.548605" lon="11.5447933"><ele>136.0</ele><time>2026-04-04T10:24:01.705Z</time></trkpt><trkpt lat="43.548695" lon="11.5447117"><ele>136.0</ele><time>2026-04-04T10:24:02.706Z</time></trkpt><trkpt lat="43.5487817" lon="11.5446333"><ele>136.0</ele><time>2026-04-04T10:24:03.706Z</time></trkpt><trkpt lat="43.5488717" lon="11.54456"><ele>136.0</ele><time>2026-04-04T10:24:04.706Z</time></trkpt><trkpt lat="43.5489633" lon="11.5444767"><ele>136.0</ele><time>2026-04-04T10:24:05.705Z</time></trkpt><trkpt lat="43.5490333" lon="11.5444067"><ele>136.16666666666669</ele><time>2026-04-04T10:24:06.706Z</time></trkpt><trkpt lat="43.5491067" lon="11.544345"><ele>136.33333333333334</ele><time>2026-04-04T10:24:07.705Z</time></trkpt><trkpt lat="43.549165" lon="11.5442933"><ele>136.5</ele><time>2026-04-04T10:24:08.706Z</time></trkpt><trkpt lat="43.5492583" lon="11.54419"><ele>136.66666666666666</ele><time>2026-04-04T10:24:10.706Z</time></trkpt><trkpt lat="43.549305" lon="11.54413"><ele>136.83333333333331</ele><time>2026-04-04T10:24:11.706Z</time></trkpt><trkpt lat="43.549355" lon="11.5440633"><ele>137.0</ele><time>2026-04-04T10:24:12.705Z</time></trkpt><trkpt lat="43.5493767" lon="11.5439817"><ele>137.0</ele><time>2026-04-04T10:24:13.706Z</time></trkpt><trkpt lat="43.549325" lon="11.5438417"><ele>137.0</ele><time>2026-04-04T10:24:15.706Z</time></trkpt><trkpt lat="43.5492567" lon="11.54375"><ele>137.0</ele><time>2026-04-04T10:24:16.706Z</time></trkpt><trkpt lat="43.549175" lon="11.5436317"><ele>137.0</ele><time>2026-04-04T10:24:17.706Z</time></trkpt><trkpt lat="43.5490717" lon="11.54348"><ele>137.0</ele><time>2026-04-04T10:24:18.706Z</time></trkpt><trkpt lat="43.548975" lon="11.5433183"><ele>137.0</ele><time>2026-04-04T10:24:19.706Z</time></trkpt><trkpt lat="43.5488867" lon="11.54315"><ele>137.0</ele><time>2026-04-04T10:24:20.706Z</time></trkpt><trkpt lat="43.5487983" lon="11.542975"><ele>137.0</ele><time>2026-04-04T10:24:21.705Z</time></trkpt><trkpt lat="43.5487183" lon="11.5427967"><ele>137.0</ele><time>2026-04-04T10:24:22.706Z</time></trkpt><trkpt lat="43.5486367" lon="11.5426117"><ele>137.0</ele><time>2026-04-04T10:24:23.706Z</time></trkpt><trkpt lat="43.5485533" lon="11.5424267"><ele>137.0</ele><time>2026-04-04T10:24:24.706Z</time></trkpt><trkpt lat="43.54848" lon="11.5422383"><ele>137.0</ele><time>2026-04-04T10:24:25.706Z</time></trkpt><trkpt lat="43.5484033" lon="11.54204"><ele>137.0</ele><time>2026-04-04T10:24:26.706Z</time></trkpt><trkpt lat="43.5483183" lon="11.5418483"><ele>136.66666666666666</ele><time>2026-04-04T10:24:27.706Z</time></trkpt><trkpt lat="43.548225" lon="11.54166"><ele>136.33333333333334</ele><time>2026-04-04T10:24:28.706Z</time></trkpt><trkpt lat="43.5481383" lon="11.541465"><ele>136.0</ele><time>2026-04-04T10:24:29.706Z</time></trkpt><trkpt lat="43.54804" lon="11.54127"><ele>136.33333333333334</ele><time>2026-04-04T10:24:30.706Z</time></trkpt><trkpt lat="43.54794" lon="11.5410817"><ele>136.66666666666666</ele><time>2026-04-04T10:24:31.706Z</time></trkpt><trkpt lat="43.5478533" lon="11.5408917"><ele>137.0</ele><time>2026-04-04T10:24:32.705Z</time></trkpt><trkpt lat="43.5477667" lon="11.540705"><ele>137.0</ele><time>2026-04-04T10:24:33.706Z</time></trkpt><trkpt lat="43.547675" lon="11.540515"><ele>137.0</ele><time>2026-04-04T10:24:34.705Z</time></trkpt><trkpt lat="43.5475783" lon="11.5403317"><ele>137.0</ele><time>2026-04-04T10:24:35.706Z</time></trkpt><trkpt lat="43.5474867" lon="11.5401483"><ele>137.0</ele><time>2026-04-04T10:24:36.706Z</time></trkpt><trkpt lat="43.5473933" lon="11.5399767"><ele>137.0</ele><time>2026-04-04T10:24:37.706Z</time></trkpt><trkpt lat="43.547315" lon="11.5398167"><ele>137.0</ele><time>2026-04-04T10:24:38.706Z</time></trkpt><trkpt lat="43.547245" lon="11.5396683"><ele>137.0</ele><time>2026-04-04T10:24:39.706Z</time></trkpt><trkpt lat="43.5471917" lon="11.5395283"><ele>136.75</ele><time>2026-04-04T10:24:40.706Z</time></trkpt><trkpt lat="43.547155" lon="11.539385"><ele>136.5</ele><time>2026-04-04T10:24:41.705Z</time></trkpt><trkpt lat="43.5471417" lon="11.5392233"><ele>136.25</ele><time>2026-04-04T10:24:42.706Z</time></trkpt><trkpt lat="43.547155" lon="11.53905"><ele>136.0</ele><time>2026-04-04T10:24:43.706Z</time></trkpt><trkpt lat="43.5471883" lon="11.5388783"><ele>136.0</ele><time>2026-04-04T10:24:44.705Z</time></trkpt><trkpt lat="43.54725" lon="11.538725"><ele>136.0</ele><time>2026-04-04T10:24:45.705Z</time></trkpt><trkpt lat="43.5473417" lon="11.5385783"><ele>136.0</ele><time>2026-04-04T10:24:46.706Z</time></trkpt><trkpt lat="43.5474567" lon="11.5384533"><ele>136.0</ele><time>2026-04-04T10:24:47.706Z</time></trkpt><trkpt lat="43.5475933" lon="11.5383183"><ele>135.66666666666669</ele><time>2026-04-04T10:24:48.706Z</time></trkpt><trkpt lat="43.54774" lon="11.5381883"><ele>135.33333333333334</ele><time>2026-04-04T10:24:49.706Z</time></trkpt><trkpt lat="43.54789" lon="11.5380533"><ele>135.0</ele><time>2026-04-04T10:24:50.706Z</time></trkpt><trkpt lat="43.548035" lon="11.5379217"><ele>135.66666666666666</ele><time>2026-04-04T10:24:51.705Z</time></trkpt><trkpt lat="43.5481833" lon="11.5377933"><ele>136.33333333333331</ele><time>2026-04-04T10:24:52.706Z</time></trkpt><trkpt lat="43.5483483" lon="11.5376533"><ele>137.0</ele><time>2026-04-04T10:24:53.705Z</time></trkpt><trkpt lat="43.5485133" lon="11.5375033"><ele>137.0</ele><time>2026-04-04T10:24:54.705Z</time></trkpt><trkpt lat="43.548675" lon="11.5373517"><ele>137.0</ele><time>2026-04-04T10:24:55.706Z</time></trkpt><trkpt lat="43.5488367" lon="11.537205"><ele>137.0</ele><time>2026-04-04T10:24:56.705Z</time></trkpt><trkpt lat="43.548995" lon="11.5370683"><ele>136.66666666666666</ele><time>2026-04-04T10:24:57.705Z</time></trkpt><trkpt lat="43.5491583" lon="11.5369183"><ele>136.33333333333334</ele><time>2026-04-04T10:24:58.706Z</time></trkpt><trkpt lat="43.549315" lon="11.5367633"><ele>136.0</ele><time>2026-04-04T10:24:59.706Z</time></trkpt><trkpt lat="43.54948" lon="11.53661"><ele>136.33333333333334</ele><time>2026-04-04T10:25:00.706Z</time></trkpt><trkpt lat="43.5496483" lon="11.5364633"><ele>136.66666666666666</ele><time>2026-04-04T10:25:01.705Z</time></trkpt><trkpt lat="43.5498233" lon="11.5363017"><ele>137.0</ele><time>2026-04-04T10:25:02.705Z</time></trkpt><trkpt lat="43.5499817" lon="11.5361667"><ele>137.66666666666666</ele><time>2026-04-04T10:25:03.706Z</time></trkpt><trkpt lat="43.5501617" lon="11.5360133"><ele>138.33333333333334</ele><time>2026-04-04T10:25:04.705Z</time></trkpt><trkpt lat="43.5503317" lon="11.5358567"><ele>139.0</ele><time>2026-04-04T10:25:05.706Z</time></trkpt><trkpt lat="43.5504917" lon="11.5356967"><ele>139.0</ele><time>2026-04-04T10:25:06.706Z</time></trkpt><trkpt lat="43.5506467" lon="11.5355533"><ele>139.0</ele><time>2026-04-04T10:25:07.706Z</time></trkpt><trkpt lat="43.5507983" lon="11.5354233"><ele>139.0</ele><time>2026-04-04T10:25:08.706Z</time></trkpt><trkpt lat="43.5509467" lon="11.5353067"><ele>138.75</ele><time>2026-04-04T10:25:09.706Z</time></trkpt><trkpt lat="43.551075" lon="11.5352017"><ele>138.5</ele><time>2026-04-04T10:25:10.706Z</time></trkpt><trkpt lat="43.55119" lon="11.53507"><ele>138.25</ele><time>2026-04-04T10:25:11.705Z</time></trkpt><trkpt lat="43.55129" lon="11.5349267"><ele>138.0</ele><time>2026-04-04T10:25:12.705Z</time></trkpt><trkpt lat="43.5513683" lon="11.5347633"><ele>138.0</ele><time>2026-04-04T10:25:13.706Z</time></trkpt><trkpt lat="43.55143" lon="11.5345717"><ele>138.0</ele><time>2026-04-04T10:25:14.705Z</time></trkpt><trkpt lat="43.5514667" lon="11.5343733"><ele>138.0</ele><time>2026-04-04T10:25:15.706Z</time></trkpt><trkpt lat="43.5514833" lon="11.5341633"><ele>138.0</ele><time>2026-04-04T10:25:16.706Z</time></trkpt><trkpt lat="43.5514917" lon="11.5339433"><ele>138.0</ele><time>2026-04-04T10:25:17.706Z</time></trkpt><trkpt lat="43.5514483" lon="11.5337217"><ele>138.0</ele><time>2026-04-04T10:25:18.706Z</time></trkpt><trkpt lat="43.551365" lon="11.5335233"><ele>137.66666666666666</ele><time>2026-04-04T10:25:19.705Z</time></trkpt><trkpt lat="43.5512567" lon="11.5333433"><ele>137.33333333333331</ele><time>2026-04-04T10:25:20.706Z</time></trkpt><trkpt lat="43.5511367" lon="11.53319"><ele>137.0</ele><time>2026-04-04T10:25:21.705Z</time></trkpt><trkpt lat="43.5510083" lon="11.533065"><ele>137.0</ele><time>2026-04-04T10:25:22.705Z</time></trkpt><trkpt lat="43.5508833" lon="11.5329583"><ele>137.0</ele><time>2026-04-04T10:25:23.706Z</time></trkpt><trkpt lat="43.5507667" lon="11.532855"><ele>137.0</ele><time>2026-04-04T10:25:24.706Z</time></trkpt><trkpt lat="43.5506483" lon="11.532755"><ele>137.0</ele><time>2026-04-04T10:25:25.706Z</time></trkpt><trkpt lat="43.5505567" lon="11.5326517"><ele>137.2</ele><time>2026-04-04T10:25:26.706Z</time></trkpt><trkpt lat="43.5504783" lon="11.5325633"><ele>137.39999999999998</ele><time>2026-04-04T10:25:27.706Z</time></trkpt><trkpt lat="43.5504183" lon="11.5324683"><ele>137.60000000000002</ele><time>2026-04-04T10:25:28.706Z</time></trkpt><trkpt lat="43.5503583" lon="11.53237"><ele>137.8</ele><time>2026-04-04T10:25:29.706Z</time></trkpt><trkpt lat="43.5503117" lon="11.532265"><ele>138.0</ele><time>2026-04-04T10:25:30.706Z</time></trkpt><trkpt lat="43.55027" lon="11.5321367"><ele>138.75</ele><time>2026-04-04T10:25:31.705Z</time></trkpt><trkpt lat="43.55023" lon="11.5319967"><ele>139.5</ele><time>2026-04-04T10:25:32.706Z</time></trkpt><trkpt lat="43.5501733" lon="11.531845"><ele>140.25</ele><time>2026-04-04T10:25:33.705Z</time></trkpt><trkpt lat="43.550105" lon="11.531675"><ele>141.0</ele><time>2026-04-04T10:25:34.705Z</time></trkpt><trkpt lat="43.5500317" lon="11.5314933"><ele>141.0</ele><time>2026-04-04T10:25:35.705Z</time></trkpt><trkpt lat="43.54995" lon="11.531315"><ele>141.0</ele><time>2026-04-04T10:25:36.705Z</time></trkpt><trkpt lat="43.5498417" lon="11.531135"><ele>141.0</ele><time>2026-04-04T10:25:37.705Z</time></trkpt><trkpt lat="43.54972" lon="11.5309667"><ele>141.33333333333334</ele><time>2026-04-04T10:25:38.705Z</time></trkpt><trkpt lat="43.5496117" lon="11.5307767"><ele>141.66666666666669</ele><time>2026-04-04T10:25:39.705Z</time></trkpt><trkpt lat="43.54952" lon="11.530565"><ele>142.0</ele><time>2026-04-04T10:25:40.705Z</time></trkpt><trkpt lat="43.5494417" lon="11.530345"><ele>143.33333333333334</ele><time>2026-04-04T10:25:41.705Z</time></trkpt><trkpt lat="43.5493667" lon="11.5301317"><ele>144.66666666666666</ele><time>2026-04-04T10:25:42.705Z</time></trkpt><trkpt lat="43.5492667" lon="11.5299133"><ele>146.0</ele><time>2026-04-04T10:25:43.705Z</time></trkpt><trkpt lat="43.549145" lon="11.52971"><ele>144.66666666666666</ele><time>2026-04-04T10:25:44.705Z</time></trkpt><trkpt lat="43.5490217" lon="11.5295217"><ele>143.33333333333334</ele><time>2026-04-04T10:25:45.705Z</time></trkpt><trkpt lat="43.54888" lon="11.529345"><ele>142.0</ele><time>2026-04-04T10:25:46.705Z</time></trkpt><trkpt lat="43.5487467" lon="11.529165"><ele>143.0</ele><time>2026-04-04T10:25:47.705Z</time></trkpt><trkpt lat="43.5486167" lon="11.5289733"><ele>144.0</ele><time>2026-04-04T10:25:48.705Z</time></trkpt><trkpt lat="43.5485033" lon="11.5287667"><ele>145.0</ele><time>2026-04-04T10:25:49.704Z</time></trkpt><trkpt lat="43.548405" lon="11.5285433"><ele>145.0</ele><time>2026-04-04T10:25:50.705Z</time></trkpt><trkpt lat="43.5483267" lon="11.5283133"><ele>145.0</ele><time>2026-04-04T10:25:51.705Z</time></trkpt><trkpt lat="43.5482483" lon="11.5280633"><ele>145.0</ele><time>2026-04-04T10:25:52.705Z</time></trkpt><trkpt lat="43.5481833" lon="11.5278267"><ele>144.0</ele><time>2026-04-04T10:25:53.705Z</time></trkpt><trkpt lat="43.548095" lon="11.5275917"><ele>143.0</ele><time>2026-04-04T10:25:54.705Z</time></trkpt><trkpt lat="43.547995" lon="11.5273667"><ele>142.0</ele><time>2026-04-04T10:25:55.704Z</time></trkpt><trkpt lat="43.5478783" lon="11.5271567"><ele>142.33333333333334</ele><time>2026-04-04T10:25:56.704Z</time></trkpt><trkpt lat="43.5477567" lon="11.526945"><ele>142.66666666666666</ele><time>2026-04-04T10:25:57.705Z</time></trkpt><trkpt lat="43.5476367" lon="11.5267333"><ele>143.0</ele><time>2026-04-04T10:25:58.704Z</time></trkpt><trkpt lat="43.54751" lon="11.5265417"><ele>143.0</ele><time>2026-04-04T10:25:59.705Z</time></trkpt><trkpt lat="43.5473633" lon="11.52638"><ele>143.0</ele><time>2026-04-04T10:26:00.705Z</time></trkpt><trkpt lat="43.5472017" lon="11.52623"><ele>143.0</ele><time>2026-04-04T10:26:01.705Z</time></trkpt><trkpt lat="43.54702" lon="11.5261083"><ele>143.33333333333331</ele><time>2026-04-04T10:26:02.704Z</time></trkpt><trkpt lat="43.5468417" lon="11.5260067"><ele>143.66666666666666</ele><time>2026-04-04T10:26:03.705Z</time></trkpt><trkpt lat="43.5466733" lon="11.5259233"><ele>144.0</ele><time>2026-04-04T10:26:04.705Z</time></trkpt><trkpt lat="43.5464933" lon="11.5258633"><ele>144.0</ele><time>2026-04-04T10:26:05.705Z</time></trkpt><trkpt lat="43.5463033" lon="11.525815"><ele>144.0</ele><time>2026-04-04T10:26:06.705Z</time></trkpt><trkpt lat="43.5461267" lon="11.5257483"><ele>144.0</ele><time>2026-04-04T10:26:07.705Z</time></trkpt><trkpt lat="43.5459583" lon="11.5256283"><ele>143.66666666666666</ele><time>2026-04-04T10:26:08.705Z</time></trkpt><trkpt lat="43.5458233" lon="11.5254667"><ele>143.33333333333331</ele><time>2026-04-04T10:26:09.705Z</time></trkpt><trkpt lat="43.5457033" lon="11.5252717"><ele>143.0</ele><time>2026-04-04T10:26:10.704Z</time></trkpt><trkpt lat="43.5455833" lon="11.5250683"><ele>143.66666666666666</ele><time>2026-04-04T10:26:11.705Z</time></trkpt><trkpt lat="43.5454683" lon="11.5248517"><ele>144.33333333333334</ele><time>2026-04-04T10:26:12.705Z</time></trkpt><trkpt lat="43.5453517" lon="11.5246383"><ele>145.0</ele><time>2026-04-04T10:26:13.705Z</time></trkpt><trkpt lat="43.54523" lon="11.52443"><ele>145.0</ele><time>2026-04-04T10:26:14.705Z</time></trkpt><trkpt lat="43.5451017" lon="11.5242167"><ele>145.0</ele><time>2026-04-04T10:26:15.705Z</time></trkpt><trkpt lat="43.5449733" lon="11.52401"><ele>145.0</ele><time>2026-04-04T10:26:16.705Z</time></trkpt><trkpt lat="43.544845" lon="11.5238183"><ele>146.0</ele><time>2026-04-04T10:26:17.704Z</time></trkpt><trkpt lat="43.5446967" lon="11.5236433"><ele>147.0</ele><time>2026-04-04T10:26:18.705Z</time></trkpt><trkpt lat="43.54455" lon="11.5234867"><ele>148.0</ele><time>2026-04-04T10:26:19.705Z</time></trkpt><trkpt lat="43.5443933" lon="11.5233417"><ele>148.0</ele><time>2026-04-04T10:26:20.705Z</time></trkpt><trkpt lat="43.5442333" lon="11.5232"><ele>148.0</ele><time>2026-04-04T10:26:21.704Z</time></trkpt><trkpt lat="43.5440733" lon="11.5230633"><ele>148.0</ele><time>2026-04-04T10:26:22.705Z</time></trkpt><trkpt lat="43.5439283" lon="11.5229083"><ele>148.33333333333334</ele><time>2026-04-04T10:26:23.705Z</time></trkpt><trkpt lat="43.5437667" lon="11.522755"><ele>148.66666666666666</ele><time>2026-04-04T10:26:24.705Z</time></trkpt><trkpt lat="43.5436033" lon="11.5226017"><ele>149.0</ele><time>2026-04-04T10:26:25.705Z</time></trkpt><trkpt lat="43.5434483" lon="11.5224517"><ele>149.0</ele><time>2026-04-04T10:26:26.705Z</time></trkpt><trkpt lat="43.5432867" lon="11.5223"><ele>149.0</ele><time>2026-04-04T10:26:27.705Z</time></trkpt><trkpt lat="43.5431333" lon="11.5221483"><ele>149.0</ele><time>2026-04-04T10:26:28.705Z</time></trkpt><trkpt lat="43.5429717" lon="11.522"><ele>150.0</ele><time>2026-04-04T10:26:29.705Z</time></trkpt><trkpt lat="43.5428083" lon="11.5218533"><ele>151.0</ele><time>2026-04-04T10:26:30.705Z</time></trkpt><trkpt lat="43.5426467" lon="11.5217017"><ele>152.0</ele><time>2026-04-04T10:26:31.704Z</time></trkpt><trkpt lat="43.5424883" lon="11.52155"><ele>152.0</ele><time>2026-04-04T10:26:32.704Z</time></trkpt><trkpt lat="43.5423367" lon="11.521395"><ele>152.0</ele><time>2026-04-04T10:26:33.705Z</time></trkpt><trkpt lat="43.542185" lon="11.52123"><ele>152.0</ele><time>2026-04-04T10:26:34.705Z</time></trkpt><trkpt lat="43.5420217" lon="11.521075"><ele>153.66666666666666</ele><time>2026-04-04T10:26:35.705Z</time></trkpt><trkpt lat="43.5418683" lon="11.520915"><ele>155.33333333333334</ele><time>2026-04-04T10:26:36.705Z</time></trkpt><trkpt lat="43.54172" lon="11.5207467"><ele>157.0</ele><time>2026-04-04T10:26:37.705Z</time></trkpt><trkpt lat="43.541585" lon="11.520575"><ele>161.33333333333334</ele><time>2026-04-04T10:26:38.705Z</time></trkpt><trkpt lat="43.5414717" lon="11.520385"><ele>165.66666666666666</ele><time>2026-04-04T10:26:39.705Z</time></trkpt><trkpt lat="43.5413883" lon="11.5201767"><ele>170.0</ele><time>2026-04-04T10:26:40.705Z</time></trkpt><trkpt lat="43.541325" lon="11.519945"><ele>170.0</ele><time>2026-04-04T10:26:41.705Z</time></trkpt><trkpt lat="43.541265" lon="11.5197083"><ele>170.0</ele><time>2026-04-04T10:26:42.705Z</time></trkpt><trkpt lat="43.541195" lon="11.5195083"><ele>170.0</ele><time>2026-04-04T10:26:43.705Z</time></trkpt><trkpt lat="43.5411217" lon="11.5193267"><ele>171.25</ele><time>2026-04-04T10:26:44.705Z</time></trkpt><trkpt lat="43.5410183" lon="11.519185"><ele>172.5</ele><time>2026-04-04T10:26:45.705Z</time></trkpt><trkpt lat="43.5408933" lon="11.5190783"><ele>173.75</ele><time>2026-04-04T10:26:46.705Z</time></trkpt><trkpt lat="43.5407833" lon="11.5190133"><ele>175.0</ele><time>2026-04-04T10:26:47.705Z</time></trkpt><trkpt lat="43.5406567" lon="11.5189583"><ele>175.0</ele><time>2026-04-04T10:26:48.705Z</time></trkpt><trkpt lat="43.54055" lon="11.51887"><ele>175.0</ele><time>2026-04-04T10:26:49.705Z</time></trkpt><trkpt lat="43.540455" lon="11.5187367"><ele>175.0</ele><time>2026-04-04T10:26:50.705Z</time></trkpt><trkpt lat="43.54039" lon="11.51856"><ele>175.0</ele><time>2026-04-04T10:26:51.704Z</time></trkpt><trkpt lat="43.5403583" lon="11.5183683"><ele>173.25</ele><time>2026-04-04T10:26:52.705Z</time></trkpt><trkpt lat="43.540365" lon="11.51817"><ele>171.5</ele><time>2026-04-04T10:26:53.704Z</time></trkpt><trkpt lat="43.540415" lon="11.518"><ele>169.75</ele><time>2026-04-04T10:26:54.704Z</time></trkpt><trkpt lat="43.5404917" lon="11.5178383"><ele>168.0</ele><time>2026-04-04T10:26:55.705Z</time></trkpt><trkpt lat="43.540575" lon="11.517695"><ele>174.25</ele><time>2026-04-04T10:26:56.705Z</time></trkpt><trkpt lat="43.540635" lon="11.517535"><ele>180.5</ele><time>2026-04-04T10:26:57.705Z</time></trkpt><trkpt lat="43.5406467" lon="11.5173633"><ele>186.75</ele><time>2026-04-04T10:26:58.705Z</time></trkpt><trkpt lat="43.5406017" lon="11.5172"><ele>193.0</ele><time>2026-04-04T10:26:59.705Z</time></trkpt><trkpt lat="43.5405267" lon="11.5170433"><ele>191.4</ele><time>2026-04-04T10:27:00.705Z</time></trkpt><trkpt lat="43.5404367" lon="11.5169167"><ele>189.8</ele><time>2026-04-04T10:27:01.705Z</time></trkpt><trkpt lat="43.54034" lon="11.5168167"><ele>188.2</ele><time>2026-04-04T10:27:02.704Z</time></trkpt><trkpt lat="43.5402633" lon="11.5167267"><ele>186.6</ele><time>2026-04-04T10:27:03.705Z</time></trkpt><trkpt lat="43.540215" lon="11.516635"><ele>185.0</ele><time>2026-04-04T10:27:04.705Z</time></trkpt><trkpt lat="43.54019" lon="11.51652"><ele>185.0</ele><time>2026-04-04T10:27:05.705Z</time></trkpt><trkpt lat="43.5401933" lon="11.516385"><ele>185.0</ele><time>2026-04-04T10:27:06.704Z</time></trkpt><trkpt lat="43.5402183" lon="11.51624"><ele>185.0</ele><time>2026-04-04T10:27:07.705Z</time></trkpt><trkpt lat="43.5402633" lon="11.5160917"><ele>185.0</ele><time>2026-04-04T10:27:08.704Z</time></trkpt><trkpt lat="43.5403317" lon="11.5159117"><ele>185.5</ele><time>2026-04-04T10:27:09.705Z</time></trkpt><trkpt lat="43.5403767" lon="11.5157233"><ele>186.0</ele><time>2026-04-04T10:27:10.705Z</time></trkpt><trkpt lat="43.54039" lon="11.5155233"><ele>186.5</ele><time>2026-04-04T10:27:11.705Z</time></trkpt><trkpt lat="43.5403967" lon="11.51533"><ele>187.0</ele><time>2026-04-04T10:27:12.705Z</time></trkpt><trkpt lat="43.540415" lon="11.5151367"><ele>194.75</ele><time>2026-04-04T10:27:13.704Z</time></trkpt><trkpt lat="43.5404167" lon="11.5149383"><ele>202.5</ele><time>2026-04-04T10:27:14.705Z</time></trkpt><trkpt lat="43.5404283" lon="11.5147467"><ele>210.25</ele><time>2026-04-04T10:27:15.705Z</time></trkpt><trkpt lat="43.5404433" lon="11.5145767"><ele>218.0</ele><time>2026-04-04T10:27:16.705Z</time></trkpt><trkpt lat="43.5404833" lon="11.5144067"><ele>218.5</ele><time>2026-04-04T10:27:17.705Z</time></trkpt><trkpt lat="43.5405333" lon="11.5142283"><ele>219.0</ele><time>2026-04-04T10:27:18.704Z</time></trkpt><trkpt lat="43.5405733" lon="11.5140583"><ele>219.5</ele><time>2026-04-04T10:27:19.705Z</time></trkpt><trkpt lat="43.5405683" lon="11.5138983"><ele>220.0</ele><time>2026-04-04T10:27:20.705Z</time></trkpt><trkpt lat="43.5405117" lon="11.513775"><ele>220.4</ele><time>2026-04-04T10:27:21.705Z</time></trkpt><trkpt lat="43.5404183" lon="11.5136717"><ele>220.8</ele><time>2026-04-04T10:27:22.705Z</time></trkpt><trkpt lat="43.5403483" lon="11.51357"><ele>221.2</ele><time>2026-04-04T10:27:23.705Z</time></trkpt><trkpt lat="43.54031" lon="11.5134517"><ele>221.6</ele><time>2026-04-04T10:27:24.704Z</time></trkpt><trkpt lat="43.5403017" lon="11.5133417"><ele>222.0</ele><time>2026-04-04T10:27:25.705Z</time></trkpt><trkpt lat="43.5403317" lon="11.51323"><ele>222.0</ele><time>2026-04-04T10:27:26.705Z</time></trkpt><trkpt lat="43.5403933" lon="11.513115"><ele>222.0</ele><time>2026-04-04T10:27:27.705Z</time></trkpt><trkpt lat="43.540485" lon="11.5130033"><ele>222.0</ele><time>2026-04-04T10:27:28.705Z</time></trkpt><trkpt lat="43.5405883" lon="11.51286"><ele>222.0</ele><time>2026-04-04T10:27:29.705Z</time></trkpt><trkpt lat="43.5406683" lon="11.5127067"><ele>222.0</ele><time>2026-04-04T10:27:30.705Z</time></trkpt><trkpt lat="43.5407033" lon="11.51252"><ele>222.0</ele><time>2026-04-04T10:27:31.705Z</time></trkpt><trkpt lat="43.5407317" lon="11.51235"><ele>222.0</ele><time>2026-04-04T10:27:32.705Z</time></trkpt><trkpt lat="43.54068" lon="11.5121733"><ele>222.0</ele><time>2026-04-04T10:27:33.705Z</time></trkpt><trkpt lat="43.5406667" lon="11.5120067"><ele>223.0</ele><time>2026-04-04T10:27:34.704Z</time></trkpt><trkpt lat="43.5406883" lon="11.5118733"><ele>224.0</ele><time>2026-04-04T10:27:35.705Z</time></trkpt><trkpt lat="43.5407467" lon="11.511745"><ele>225.0</ele><time>2026-04-04T10:27:36.705Z</time></trkpt><trkpt lat="43.5408183" lon="11.5116217"><ele>226.0</ele><time>2026-04-04T10:27:37.705Z</time></trkpt><trkpt lat="43.5408917" lon="11.51147"><ele>226.0</ele><time>2026-04-04T10:27:38.705Z</time></trkpt><trkpt lat="43.5409367" lon="11.511295"><ele>226.0</ele><time>2026-04-04T10:27:39.704Z</time></trkpt><trkpt lat="43.54095" lon="11.5111"><ele>226.0</ele><time>2026-04-04T10:27:40.705Z</time></trkpt><trkpt lat="43.540945" lon="11.5109083"><ele>226.0</ele><time>2026-04-04T10:27:41.705Z</time></trkpt><trkpt lat="43.54092" lon="11.5107083"><ele>227.33333333333331</ele><time>2026-04-04T10:27:42.705Z</time></trkpt><trkpt lat="43.5408633" lon="11.5105233"><ele>228.66666666666669</ele><time>2026-04-04T10:27:43.705Z</time></trkpt><trkpt lat="43.540755" lon="11.510375"><ele>230.0</ele><time>2026-04-04T10:27:44.705Z</time></trkpt><trkpt lat="43.54063" lon="11.5102483"><ele>229.66666666666669</ele><time>2026-04-04T10:27:45.704Z</time></trkpt><trkpt lat="43.5405033" lon="11.5101217"><ele>229.33333333333331</ele><time>2026-04-04T10:27:46.705Z</time></trkpt><trkpt lat="43.54038" lon="11.5099917"><ele>229.0</ele><time>2026-04-04T10:27:47.705Z</time></trkpt><trkpt lat="43.5402533" lon="11.5098517"><ele>229.0</ele><time>2026-04-04T10:27:48.705Z</time></trkpt><trkpt lat="43.54011" lon="11.5097067"><ele>229.0</ele><time>2026-04-04T10:27:49.704Z</time></trkpt><trkpt lat="43.539955" lon="11.5095583"><ele>229.0</ele><time>2026-04-04T10:27:50.705Z</time></trkpt><trkpt lat="43.53979" lon="11.509395"><ele>230.0</ele><time>2026-04-04T10:27:51.705Z</time></trkpt><trkpt lat="43.5396267" lon="11.50921"><ele>231.0</ele><time>2026-04-04T10:27:52.705Z</time></trkpt><trkpt lat="43.539465" lon="11.5090333"><ele>232.0</ele><time>2026-04-04T10:27:53.705Z</time></trkpt><trkpt lat="43.5393133" lon="11.50884"><ele>236.0</ele><time>2026-04-04T10:27:54.704Z</time></trkpt><trkpt lat="43.53916" lon="11.5086517"><ele>240.0</ele><time>2026-04-04T10:27:55.705Z</time></trkpt><trkpt lat="43.5390133" lon="11.50847"><ele>244.0</ele><time>2026-04-04T10:27:56.705Z</time></trkpt><trkpt lat="43.538875" lon="11.5082917"><ele>244.0</ele><time>2026-04-04T10:27:57.704Z</time></trkpt><trkpt lat="43.5387467" lon="11.508125"><ele>244.0</ele><time>2026-04-04T10:27:58.704Z</time></trkpt><trkpt lat="43.5386517" lon="11.5079417"><ele>244.0</ele><time>2026-04-04T10:27:59.705Z</time></trkpt><trkpt lat="43.53862" lon="11.507755"><ele>243.66666666666666</ele><time>2026-04-04T10:28:00.705Z</time></trkpt><trkpt lat="43.5386417" lon="11.5075317"><ele>243.33333333333331</ele><time>2026-04-04T10:28:01.705Z</time></trkpt><trkpt lat="43.5386833" lon="11.5073083"><ele>243.0</ele><time>2026-04-04T10:28:02.704Z</time></trkpt><trkpt lat="43.5387317" lon="11.5070867"><ele>245.66666666666669</ele><time>2026-04-04T10:28:03.704Z</time></trkpt><trkpt lat="43.5387867" lon="11.506875"><ele>248.33333333333334</ele><time>2026-04-04T10:28:04.705Z</time></trkpt><trkpt lat="43.5388583" lon="11.5066583"><ele>251.0</ele><time>2026-04-04T10:28:05.705Z</time></trkpt><trkpt lat="43.5389217" lon="11.5064417"><ele>251.0</ele><time>2026-04-04T10:28:06.704Z</time></trkpt><trkpt lat="43.5389633" lon="11.506205"><ele>251.0</ele><time>2026-04-04T10:28:07.704Z</time></trkpt><trkpt lat="43.538975" lon="11.5059683"><ele>251.0</ele><time>2026-04-04T10:28:08.705Z</time></trkpt><trkpt lat="43.5389583" lon="11.5057383"><ele>251.0</ele><time>2026-04-04T10:28:09.705Z</time></trkpt><trkpt lat="43.5389183" lon="11.5055217"><ele>251.0</ele><time>2026-04-04T10:28:10.705Z</time></trkpt><trkpt lat="43.5388583" lon="11.5053167"><ele>251.0</ele><time>2026-04-04T10:28:11.704Z</time></trkpt><trkpt lat="43.53878" lon="11.5051383"><ele>251.75</ele><time>2026-04-04T10:28:12.705Z</time></trkpt><trkpt lat="43.5386883" lon="11.5049783"><ele>252.5</ele><time>2026-04-04T10:28:13.704Z</time></trkpt><trkpt lat="43.5385933" lon="11.5048267"><ele>253.25</ele><time>2026-04-04T10:28:14.705Z</time></trkpt><trkpt lat="43.538525" lon="11.504675"><ele>254.0</ele><time>2026-04-04T10:28:15.705Z</time></trkpt><trkpt lat="43.5384833" lon="11.504525"><ele>254.75</ele><time>2026-04-04T10:28:16.705Z</time></trkpt><trkpt lat="43.538475" lon="11.504365"><ele>255.5</ele><time>2026-04-04T10:28:17.704Z</time></trkpt><trkpt lat="43.538465" lon="11.5041833"><ele>256.25</ele><time>2026-04-04T10:28:18.705Z</time></trkpt><trkpt lat="43.5384567" lon="11.5039867"><ele>257.0</ele><time>2026-04-04T10:28:19.705Z</time></trkpt><trkpt lat="43.538435" lon="11.50378"><ele>256.33333333333337</ele><time>2026-04-04T10:28:20.704Z</time></trkpt><trkpt lat="43.53839" lon="11.5035767"><ele>255.66666666666669</ele><time>2026-04-04T10:28:21.705Z</time></trkpt><trkpt lat="43.5383383" lon="11.50337"><ele>255.0</ele><time>2026-04-04T10:28:22.705Z</time></trkpt><trkpt lat="43.53828" lon="11.5031717"><ele>255.0</ele><time>2026-04-04T10:28:23.705Z</time></trkpt><trkpt lat="43.5382033" lon="11.503"><ele>255.0</ele><time>2026-04-04T10:28:24.705Z</time></trkpt><trkpt lat="43.5381117" lon="11.5028517"><ele>255.0</ele><time>2026-04-04T10:28:25.705Z</time></trkpt><trkpt lat="43.5379983" lon="11.50275"><ele>255.0</ele><time>2026-04-04T10:28:26.705Z</time></trkpt><trkpt lat="43.5378667" lon="11.5026883"><ele>256.3333333333333</ele><time>2026-04-04T10:28:27.705Z</time></trkpt><trkpt lat="43.5377117" lon="11.502645"><ele>257.66666666666663</ele><time>2026-04-04T10:28:28.705Z</time></trkpt><trkpt lat="43.5375567" lon="11.502605"><ele>259.0</ele><time>2026-04-04T10:28:29.705Z</time></trkpt><trkpt lat="43.5374067" lon="11.5025283"><ele>259.0</ele><time>2026-04-04T10:28:30.705Z</time></trkpt><trkpt lat="43.5372733" lon="11.5024133"><ele>259.0</ele><time>2026-04-04T10:28:31.705Z</time></trkpt><trkpt lat="43.53714" lon="11.5022833"><ele>259.0</ele><time>2026-04-04T10:28:32.705Z</time></trkpt><trkpt lat="43.537015" lon="11.50215"><ele>260.66666666666663</ele><time>2026-04-04T10:28:33.705Z</time></trkpt><trkpt lat="43.5368867" lon="11.5020083"><ele>262.3333333333333</ele><time>2026-04-04T10:28:34.705Z</time></trkpt><trkpt lat="43.53676" lon="11.5018533"><ele>264.0</ele><time>2026-04-04T10:28:35.705Z</time></trkpt><trkpt lat="43.536655" lon="11.5016733"><ele>264.0</ele><time>2026-04-04T10:28:36.705Z</time></trkpt><trkpt lat="43.536565" lon="11.5014817"><ele>264.0</ele><time>2026-04-04T10:28:37.704Z</time></trkpt><trkpt lat="43.536485" lon="11.5012817"><ele>264.0</ele><time>2026-04-04T10:28:38.705Z</time></trkpt><trkpt lat="43.536395" lon="11.501085"><ele>264.6666666666667</ele><time>2026-04-04T10:28:39.705Z</time></trkpt><trkpt lat="43.5363083" lon="11.5008817"><ele>265.33333333333337</ele><time>2026-04-04T10:28:40.705Z</time></trkpt><trkpt lat="43.53622" lon="11.5006667"><ele>266.0</ele><time>2026-04-04T10:28:41.705Z</time></trkpt><trkpt lat="43.536145" lon="11.5004533"><ele>267.0</ele><time>2026-04-04T10:28:42.705Z</time></trkpt><trkpt lat="43.5360683" lon="11.50025"><ele>268.0</ele><time>2026-04-04T10:28:43.705Z</time></trkpt><trkpt lat="43.5359667" lon="11.500075"><ele>269.0</ele><time>2026-04-04T10:28:44.705Z</time></trkpt><trkpt lat="43.53583" lon="11.499915"><ele>269.0</ele><time>2026-04-04T10:28:45.704Z</time></trkpt><trkpt lat="43.53567" lon="11.4997867"><ele>269.0</ele><time>2026-04-04T10:28:46.705Z</time></trkpt><trkpt lat="43.5355017" lon="11.4996717"><ele>269.0</ele><time>2026-04-04T10:28:47.705Z</time></trkpt><trkpt lat="43.5353383" lon="11.4995683"><ele>269.0</ele><time>2026-04-04T10:28:48.704Z</time></trkpt><trkpt lat="43.53517" lon="11.4994767"><ele>269.0</ele><time>2026-04-04T10:28:49.704Z</time></trkpt><trkpt lat="43.5349933" lon="11.4993833"><ele>269.0</ele><time>2026-04-04T10:28:50.705Z</time></trkpt><trkpt lat="43.534825" lon="11.4993017"><ele>269.0</ele><time>2026-04-04T10:28:51.705Z</time></trkpt><trkpt lat="43.5346533" lon="11.49923"><ele>269.0</ele><time>2026-04-04T10:28:52.705Z</time></trkpt><trkpt lat="43.5344817" lon="11.499165"><ele>269.0</ele><time>2026-04-04T10:28:53.704Z</time></trkpt><trkpt lat="43.5343033" lon="11.4990983"><ele>270.0</ele><time>2026-04-04T10:28:54.705Z</time></trkpt><trkpt lat="43.534115" lon="11.49904"><ele>271.0</ele><time>2026-04-04T10:28:55.705Z</time></trkpt><trkpt lat="43.5339367" lon="11.4989983"><ele>272.0</ele><time>2026-04-04T10:28:56.705Z</time></trkpt><trkpt lat="43.5337567" lon="11.4989667"><ele>273.0</ele><time>2026-04-04T10:28:57.705Z</time></trkpt><trkpt lat="43.5335817" lon="11.4989517"><ele>274.0</ele><time>2026-04-04T10:28:58.705Z</time></trkpt><trkpt lat="43.533405" lon="11.4989383"><ele>275.0</ele><time>2026-04-04T10:28:59.705Z</time></trkpt><trkpt lat="43.533225" lon="11.49893"><ele>275.0</ele><time>2026-04-04T10:29:00.705Z</time></trkpt><trkpt lat="43.53306" lon="11.49892"><ele>275.0</ele><time>2026-04-04T10:29:01.705Z</time></trkpt><trkpt lat="43.5328967" lon="11.49892"><ele>275.0</ele><time>2026-04-04T10:29:02.705Z</time></trkpt><trkpt lat="43.5327417" lon="11.4988967"><ele>275.0</ele><time>2026-04-04T10:29:03.705Z</time></trkpt><trkpt lat="43.53259" lon="11.49885"><ele>275.0</ele><time>2026-04-04T10:29:04.704Z</time></trkpt><trkpt lat="43.53244" lon="11.4987717"><ele>275.0</ele><time>2026-04-04T10:29:05.704Z</time></trkpt><trkpt lat="43.532305" lon="11.4986717"><ele>275.33333333333337</ele><time>2026-04-04T10:29:06.705Z</time></trkpt><trkpt lat="43.53216" lon="11.49857"><ele>275.6666666666667</ele><time>2026-04-04T10:29:07.705Z</time></trkpt><trkpt lat="43.53203" lon="11.4984633"><ele>276.0</ele><time>2026-04-04T10:29:08.704Z</time></trkpt><trkpt lat="43.5318967" lon="11.4983533"><ele>276.0</ele><time>2026-04-04T10:29:09.705Z</time></trkpt><trkpt lat="43.5317633" lon="11.4982483"><ele>276.0</ele><time>2026-04-04T10:29:10.704Z</time></trkpt><trkpt lat="43.531625" lon="11.498145"><ele>276.0</ele><time>2026-04-04T10:29:11.705Z</time></trkpt><trkpt lat="43.5315033" lon="11.4980383"><ele>276.0</ele><time>2026-04-04T10:29:12.704Z</time></trkpt><trkpt lat="43.5313533" lon="11.4979317"><ele>276.0</ele><time>2026-04-04T10:29:13.705Z</time></trkpt><trkpt lat="43.5311967" lon="11.4978233"><ele>276.0</ele><time>2026-04-04T10:29:14.705Z</time></trkpt><trkpt lat="43.5310483" lon="11.4976967"><ele>276.6666666666667</ele><time>2026-04-04T10:29:15.705Z</time></trkpt><trkpt lat="43.5308867" lon="11.49758"><ele>277.33333333333337</ele><time>2026-04-04T10:29:16.704Z</time></trkpt><trkpt lat="43.5307217" lon="11.497475"><ele>278.0</ele><time>2026-04-04T10:29:17.705Z</time></trkpt><trkpt lat="43.5305417" lon="11.4973833"><ele>278.0</ele><time>2026-04-04T10:29:18.704Z</time></trkpt><trkpt lat="43.530345" lon="11.497295"><ele>278.0</ele><time>2026-04-04T10:29:19.704Z</time></trkpt><trkpt lat="43.5301483" lon="11.4972083"><ele>278.0</ele><time>2026-04-04T10:29:20.705Z</time></trkpt><trkpt lat="43.5299733" lon="11.497125"><ele>277.6666666666667</ele><time>2026-04-04T10:29:21.705Z</time></trkpt><trkpt lat="43.529815" lon="11.49704"><ele>277.3333333333333</ele><time>2026-04-04T10:29:22.705Z</time></trkpt><trkpt lat="43.5296567" lon="11.496955"><ele>277.0</ele><time>2026-04-04T10:29:23.705Z</time></trkpt><trkpt lat="43.5295117" lon="11.49688"><ele>277.0</ele><time>2026-04-04T10:29:24.704Z</time></trkpt><trkpt lat="43.5293817" lon="11.4968133"><ele>277.0</ele><time>2026-04-04T10:29:25.705Z</time></trkpt><trkpt lat="43.529265" lon="11.49675"><ele>277.0</ele><time>2026-04-04T10:29:26.704Z</time></trkpt><trkpt lat="43.52915" lon="11.4966767"><ele>277.0</ele><time>2026-04-04T10:29:27.705Z</time></trkpt><trkpt lat="43.5290317" lon="11.49658"><ele>277.0</ele><time>2026-04-04T10:29:28.705Z</time></trkpt><trkpt lat="43.5289183" lon="11.49646"><ele>277.0</ele><time>2026-04-04T10:29:29.705Z</time></trkpt><trkpt lat="43.5288117" lon="11.4963217"><ele>277.0</ele><time>2026-04-04T10:29:30.705Z</time></trkpt><trkpt lat="43.528695" lon="11.49618"><ele>277.0</ele><time>2026-04-04T10:29:31.705Z</time></trkpt><trkpt lat="43.5285917" lon="11.496045"><ele>276.75</ele><time>2026-04-04T10:29:32.705Z</time></trkpt><trkpt lat="43.5284833" lon="11.495925"><ele>276.5</ele><time>2026-04-04T10:29:33.705Z</time></trkpt><trkpt lat="43.528355" lon="11.4958433"><ele>276.25</ele><time>2026-04-04T10:29:34.704Z</time></trkpt><trkpt lat="43.528225" lon="11.4957967"><ele>276.0</ele><time>2026-04-04T10:29:35.705Z</time></trkpt><trkpt lat="43.5280767" lon="11.4957933"><ele>276.0</ele><time>2026-04-04T10:29:36.705Z</time></trkpt><trkpt lat="43.52791" lon="11.4957817"><ele>276.0</ele><time>2026-04-04T10:29:37.705Z</time></trkpt><trkpt lat="43.527745" lon="11.4957633"><ele>276.0</ele><time>2026-04-04T10:29:38.704Z</time></trkpt><trkpt lat="43.5275833" lon="11.4957383"><ele>277.0</ele><time>2026-04-04T10:29:39.705Z</time></trkpt><trkpt lat="43.5274283" lon="11.4957133"><ele>278.0</ele><time>2026-04-04T10:29:40.704Z</time></trkpt><trkpt lat="43.5272917" lon="11.49567"><ele>279.0</ele><time>2026-04-04T10:29:41.704Z</time></trkpt><trkpt lat="43.52717" lon="11.4956117"><ele>280.0</ele><time>2026-04-04T10:29:42.705Z</time></trkpt><trkpt lat="43.52704" lon="11.4955433"><ele>280.0</ele><time>2026-04-04T10:29:43.705Z</time></trkpt><trkpt lat="43.5268983" lon="11.4954667"><ele>280.0</ele><time>2026-04-04T10:29:44.704Z</time></trkpt><trkpt lat="43.52675" lon="11.4953717"><ele>280.0</ele><time>2026-04-04T10:29:45.705Z</time></trkpt><trkpt lat="43.5265967" lon="11.4952617"><ele>280.0</ele><time>2026-04-04T10:29:46.704Z</time></trkpt><trkpt lat="43.5264467" lon="11.4951467"><ele>280.0</ele><time>2026-04-04T10:29:47.705Z</time></trkpt><trkpt lat="43.52629" lon="11.495035"><ele>280.0</ele><time>2026-04-04T10:29:48.705Z</time></trkpt><trkpt lat="43.5261233" lon="11.4949183"><ele>279.75</ele><time>2026-04-04T10:29:49.704Z</time></trkpt><trkpt lat="43.52598" lon="11.4948117"><ele>279.5</ele><time>2026-04-04T10:29:50.705Z</time></trkpt><trkpt lat="43.5258517" lon="11.494715"><ele>279.25</ele><time>2026-04-04T10:29:51.705Z</time></trkpt><trkpt lat="43.525745" lon="11.4946267"><ele>279.0</ele><time>2026-04-04T10:29:52.704Z</time></trkpt><trkpt lat="43.525655" lon="11.4945183"><ele>279.0</ele><time>2026-04-04T10:29:53.704Z</time></trkpt><trkpt lat="43.5255733" lon="11.494375"><ele>279.0</ele><time>2026-04-04T10:29:54.705Z</time></trkpt><trkpt lat="43.5254933" lon="11.4942233"><ele>279.0</ele><time>2026-04-04T10:29:55.704Z</time></trkpt><trkpt lat="43.5254217" lon="11.49405"><ele>279.0</ele><time>2026-04-04T10:29:56.705Z</time></trkpt><trkpt lat="43.5253583" lon="11.49387"><ele>278.6666666666667</ele><time>2026-04-04T10:29:57.705Z</time></trkpt><trkpt lat="43.52529" lon="11.4936817"><ele>278.33333333333337</ele><time>2026-04-04T10:29:58.704Z</time></trkpt><trkpt lat="43.5252067" lon="11.493505"><ele>278.0</ele><time>2026-04-04T10:29:59.705Z</time></trkpt><trkpt lat="43.5251083" lon="11.493335"><ele>278.0</ele><time>2026-04-04T10:30:00.705Z</time></trkpt><trkpt lat="43.5250017" lon="11.49318"><ele>278.0</ele><time>2026-04-04T10:30:01.705Z</time></trkpt><trkpt lat="43.524895" lon="11.4930383"><ele>278.0</ele><time>2026-04-04T10:30:02.704Z</time></trkpt><trkpt lat="43.524805" lon="11.4929067"><ele>278.0</ele><time>2026-04-04T10:30:03.705Z</time></trkpt><trkpt lat="43.5247133" lon="11.492775"><ele>278.25</ele><time>2026-04-04T10:30:04.704Z</time></trkpt><trkpt lat="43.5246333" lon="11.4926483"><ele>278.5</ele><time>2026-04-04T10:30:05.705Z</time></trkpt><trkpt lat="43.5245617" lon="11.4924883"><ele>278.75</ele><time>2026-04-04T10:30:06.705Z</time></trkpt><trkpt lat="43.5245167" lon="11.492325"><ele>279.0</ele><time>2026-04-04T10:30:07.705Z</time></trkpt><trkpt lat="43.5245017" lon="11.492155"><ele>278.5</ele><time>2026-04-04T10:30:08.705Z</time></trkpt><trkpt lat="43.52454" lon="11.491995"><ele>278.0</ele><time>2026-04-04T10:30:09.705Z</time></trkpt><trkpt lat="43.52462" lon="11.491845"><ele>277.5</ele><time>2026-04-04T10:30:10.705Z</time></trkpt><trkpt lat="43.5247367" lon="11.491695"><ele>277.0</ele><time>2026-04-04T10:30:11.705Z</time></trkpt><trkpt lat="43.5248667" lon="11.4915683"><ele>276.0</ele><time>2026-04-04T10:30:12.705Z</time></trkpt><trkpt lat="43.5250017" lon="11.4914417"><ele>275.0</ele><time>2026-04-04T10:30:13.705Z</time></trkpt><trkpt lat="43.5251433" lon="11.491315"><ele>274.0</ele><time>2026-04-04T10:30:14.704Z</time></trkpt><trkpt lat="43.525295" lon="11.4911783"><ele>273.66666666666663</ele><time>2026-04-04T10:30:15.705Z</time></trkpt><trkpt lat="43.525445" lon="11.4910367"><ele>273.3333333333333</ele><time>2026-04-04T10:30:16.705Z</time></trkpt><trkpt lat="43.5255883" lon="11.4908983"><ele>273.0</ele><time>2026-04-04T10:30:17.705Z</time></trkpt><trkpt lat="43.525735" lon="11.4907583"><ele>273.0</ele><time>2026-04-04T10:30:18.704Z</time></trkpt><trkpt lat="43.525875" lon="11.4906067"><ele>273.0</ele><time>2026-04-04T10:30:19.705Z</time></trkpt><trkpt lat="43.526" lon="11.4904517"><ele>273.0</ele><time>2026-04-04T10:30:20.705Z</time></trkpt><trkpt lat="43.5261183" lon="11.49028"><ele>275.0</ele><time>2026-04-04T10:30:21.705Z</time></trkpt><trkpt lat="43.5262" lon="11.4900883"><ele>277.0</ele><time>2026-04-04T10:30:22.704Z</time></trkpt><trkpt lat="43.526245" lon="11.4898883"><ele>279.0</ele><time>2026-04-04T10:30:23.705Z</time></trkpt><trkpt lat="43.5262733" lon="11.4896967"><ele>280.0</ele><time>2026-04-04T10:30:24.705Z</time></trkpt><trkpt lat="43.5263017" lon="11.4895367"><ele>281.0</ele><time>2026-04-04T10:30:25.705Z</time></trkpt><trkpt lat="43.526345" lon="11.4894033"><ele>282.0</ele><time>2026-04-04T10:30:26.705Z</time></trkpt><trkpt lat="43.5263983" lon="11.48927"><ele>283.0</ele><time>2026-04-04T10:30:27.705Z</time></trkpt><trkpt lat="43.5264183" lon="11.4891333"><ele>284.0</ele><time>2026-04-04T10:30:28.705Z</time></trkpt><trkpt lat="43.5264017" lon="11.4889983"><ele>284.0</ele><time>2026-04-04T10:30:29.705Z</time></trkpt><trkpt lat="43.5263483" lon="11.48886"><ele>284.0</ele><time>2026-04-04T10:30:30.705Z</time></trkpt><trkpt lat="43.5262767" lon="11.4887133"><ele>284.0</ele><time>2026-04-04T10:30:31.705Z</time></trkpt><trkpt lat="43.526185" lon="11.4885683"><ele>284.0</ele><time>2026-04-04T10:30:32.705Z</time></trkpt><trkpt lat="43.5260917" lon="11.48841"><ele>286.0</ele><time>2026-04-04T10:30:33.705Z</time></trkpt><trkpt lat="43.5259983" lon="11.4882467"><ele>288.0</ele><time>2026-04-04T10:30:34.703Z</time></trkpt><trkpt lat="43.5259017" lon="11.4880917"><ele>290.0</ele><time>2026-04-04T10:30:35.703Z</time></trkpt><trkpt lat="43.52579" lon="11.4879283"><ele>289.6666666666667</ele><time>2026-04-04T10:30:36.704Z</time></trkpt><trkpt lat="43.5256817" lon="11.48776"><ele>289.3333333333333</ele><time>2026-04-04T10:30:37.703Z</time></trkpt><trkpt lat="43.5255683" lon="11.48758"><ele>289.0</ele><time>2026-04-04T10:30:38.704Z</time></trkpt><trkpt lat="43.5254583" lon="11.4874083"><ele>289.66666666666663</ele><time>2026-04-04T10:30:39.704Z</time></trkpt><trkpt lat="43.5253517" lon="11.4872333"><ele>290.3333333333333</ele><time>2026-04-04T10:30:40.704Z</time></trkpt><trkpt lat="43.525245" lon="11.48706"><ele>291.0</ele><time>2026-04-04T10:30:41.704Z</time></trkpt><trkpt lat="43.5251533" lon="11.48686"><ele>291.0</ele><time>2026-04-04T10:30:42.704Z</time></trkpt><trkpt lat="43.5250767" lon="11.48666"><ele>291.0</ele><time>2026-04-04T10:30:43.704Z</time></trkpt><trkpt lat="43.5250317" lon="11.4864383"><ele>291.0</ele><time>2026-04-04T10:30:44.703Z</time></trkpt><trkpt lat="43.5249983" lon="11.4862033"><ele>291.6666666666667</ele><time>2026-04-04T10:30:45.704Z</time></trkpt><trkpt lat="43.52497" lon="11.4859617"><ele>292.33333333333337</ele><time>2026-04-04T10:30:46.704Z</time></trkpt><trkpt lat="43.5249383" lon="11.48572"><ele>293.0</ele><time>2026-04-04T10:30:47.704Z</time></trkpt><trkpt lat="43.5249" lon="11.4854783"><ele>294.33333333333337</ele><time>2026-04-04T10:30:48.704Z</time></trkpt><trkpt lat="43.5248683" lon="11.4852433"><ele>295.6666666666667</ele><time>2026-04-04T10:30:49.704Z</time></trkpt><trkpt lat="43.5248333" lon="11.4850117"><ele>297.0</ele><time>2026-04-04T10:30:50.704Z</time></trkpt><trkpt lat="43.5248067" lon="11.484795"><ele>298.0</ele><time>2026-04-04T10:30:51.704Z</time></trkpt><trkpt lat="43.5247967" lon="11.4845833"><ele>299.0</ele><time>2026-04-04T10:30:52.703Z</time></trkpt><trkpt lat="43.5248083" lon="11.484375"><ele>300.0</ele><time>2026-04-04T10:30:53.704Z</time></trkpt><trkpt lat="43.524845" lon="11.48417"><ele>300.0</ele><time>2026-04-04T10:30:54.704Z</time></trkpt><trkpt lat="43.5249017" lon="11.4839617"><ele>300.0</ele><time>2026-04-04T10:30:55.704Z</time></trkpt><trkpt lat="43.5249617" lon="11.4837667"><ele>300.0</ele><time>2026-04-04T10:30:56.703Z</time></trkpt><trkpt lat="43.5250367" lon="11.4835717"><ele>301.6666666666667</ele><time>2026-04-04T10:30:57.704Z</time></trkpt><trkpt lat="43.5250917" lon="11.4833717"><ele>303.33333333333337</ele><time>2026-04-04T10:30:58.704Z</time></trkpt><trkpt lat="43.5251233" lon="11.4831583"><ele>305.0</ele><time>2026-04-04T10:30:59.704Z</time></trkpt><trkpt lat="43.5251133" lon="11.48292"><ele>307.6666666666667</ele><time>2026-04-04T10:31:00.704Z</time></trkpt><trkpt lat="43.525065" lon="11.482695"><ele>310.3333333333333</ele><time>2026-04-04T10:31:01.704Z</time></trkpt><trkpt lat="43.5249917" lon="11.48248"><ele>313.0</ele><time>2026-04-04T10:31:02.704Z</time></trkpt><trkpt lat="43.524895" lon="11.4822833"><ele>312.0</ele><time>2026-04-04T10:31:03.704Z</time></trkpt><trkpt lat="43.5247883" lon="11.4820783"><ele>311.0</ele><time>2026-04-04T10:31:04.704Z</time></trkpt><trkpt lat="43.524695" lon="11.4818783"><ele>310.0</ele><time>2026-04-04T10:31:05.703Z</time></trkpt><trkpt lat="43.5245883" lon="11.4816883"><ele>314.3333333333333</ele><time>2026-04-04T10:31:06.703Z</time></trkpt><trkpt lat="43.5244883" lon="11.4814833"><ele>318.6666666666667</ele><time>2026-04-04T10:31:07.704Z</time></trkpt><trkpt lat="43.52438" lon="11.4812817"><ele>323.0</ele><time>2026-04-04T10:31:08.704Z</time></trkpt><trkpt lat="43.5242767" lon="11.4810817"><ele>323.0</ele><time>2026-04-04T10:31:09.704Z</time></trkpt><trkpt lat="43.5241767" lon="11.4808817"><ele>323.0</ele><time>2026-04-04T10:31:10.704Z</time></trkpt><trkpt lat="43.524065" lon="11.4806817"><ele>323.0</ele><time>2026-04-04T10:31:11.704Z</time></trkpt><trkpt lat="43.5239667" lon="11.4804783"><ele>323.6666666666667</ele><time>2026-04-04T10:31:12.703Z</time></trkpt><trkpt lat="43.523885" lon="11.48028"><ele>324.3333333333333</ele><time>2026-04-04T10:31:13.704Z</time></trkpt><trkpt lat="43.52382" lon="11.4801"><ele>325.0</ele><time>2026-04-04T10:31:14.704Z</time></trkpt><trkpt lat="43.523785" lon="11.479915"><ele>325.0</ele><time>2026-04-04T10:31:15.704Z</time></trkpt><trkpt lat="43.523785" lon="11.4797233"><ele>325.0</ele><time>2026-04-04T10:31:16.704Z</time></trkpt><trkpt lat="43.5238233" lon="11.479535"><ele>325.0</ele><time>2026-04-04T10:31:17.703Z</time></trkpt><trkpt lat="43.5239067" lon="11.4793733"><ele>325.0</ele><time>2026-04-04T10:31:18.704Z</time></trkpt><trkpt lat="43.52403" lon="11.4792533"><ele>327.75</ele><time>2026-04-04T10:31:19.704Z</time></trkpt><trkpt lat="43.5241667" lon="11.4791983"><ele>330.5</ele><time>2026-04-04T10:31:20.704Z</time></trkpt><trkpt lat="43.524315" lon="11.47919"><ele>333.25</ele><time>2026-04-04T10:31:21.704Z</time></trkpt><trkpt lat="43.5244667" lon="11.479195"><ele>336.0</ele><time>2026-04-04T10:31:22.703Z</time></trkpt><trkpt lat="43.524625" lon="11.4792"><ele>336.3333333333333</ele><time>2026-04-04T10:31:23.703Z</time></trkpt><trkpt lat="43.524775" lon="11.47918"><ele>336.66666666666663</ele><time>2026-04-04T10:31:24.704Z</time></trkpt><trkpt lat="43.5249233" lon="11.47911"><ele>337.0</ele><time>2026-04-04T10:31:25.704Z</time></trkpt><trkpt lat="43.5250583" lon="11.4789917"><ele>337.0</ele><time>2026-04-04T10:31:26.704Z</time></trkpt><trkpt lat="43.5251633" lon="11.478825"><ele>337.0</ele><time>2026-04-04T10:31:27.704Z</time></trkpt><trkpt lat="43.5252167" lon="11.478625"><ele>337.0</ele><time>2026-04-04T10:31:28.703Z</time></trkpt><trkpt lat="43.5252133" lon="11.4783983"><ele>337.66666666666663</ele><time>2026-04-04T10:31:29.704Z</time></trkpt><trkpt lat="43.5251667" lon="11.4781683"><ele>338.3333333333333</ele><time>2026-04-04T10:31:30.704Z</time></trkpt><trkpt lat="43.5250867" lon="11.4779767"><ele>339.0</ele><time>2026-04-04T10:31:31.703Z</time></trkpt><trkpt lat="43.5249767" lon="11.4778267"><ele>339.0</ele><time>2026-04-04T10:31:32.704Z</time></trkpt><trkpt lat="43.5248433" lon="11.4777233"><ele>339.0</ele><time>2026-04-04T10:31:33.704Z</time></trkpt><trkpt lat="43.5246967" lon="11.477625"><ele>339.0</ele><time>2026-04-04T10:31:34.703Z</time></trkpt><trkpt lat="43.5245633" lon="11.47753"><ele>341.6666666666667</ele><time>2026-04-04T10:31:35.704Z</time></trkpt><trkpt lat="43.5244267" lon="11.4774217"><ele>344.33333333333337</ele><time>2026-04-04T10:31:36.704Z</time></trkpt><trkpt lat="43.5242983" lon="11.4773183"><ele>347.0</ele><time>2026-04-04T10:31:37.704Z</time></trkpt><trkpt lat="43.524175" lon="11.4772083"><ele>345.25</ele><time>2026-04-04T10:31:38.704Z</time></trkpt><trkpt lat="43.52407" lon="11.47709"><ele>343.5</ele><time>2026-04-04T10:31:39.703Z</time></trkpt><trkpt lat="43.52398" lon="11.476945"><ele>341.75</ele><time>2026-04-04T10:31:40.703Z</time></trkpt><trkpt lat="43.52391" lon="11.4767617"><ele>340.0</ele><time>2026-04-04T10:31:41.703Z</time></trkpt><trkpt lat="43.5238633" lon="11.4765733"><ele>340.0</ele><time>2026-04-04T10:31:42.704Z</time></trkpt><trkpt lat="43.523835" lon="11.4763767"><ele>340.0</ele><time>2026-04-04T10:31:43.704Z</time></trkpt><trkpt lat="43.5238233" lon="11.4761833"><ele>340.0</ele><time>2026-04-04T10:31:44.704Z</time></trkpt><trkpt lat="43.5238333" lon="11.47599"><ele>340.0</ele><time>2026-04-04T10:31:45.704Z</time></trkpt><trkpt lat="43.5238667" lon="11.4758183"><ele>340.25</ele><time>2026-04-04T10:31:46.704Z</time></trkpt><trkpt lat="43.5239183" lon="11.47565"><ele>340.5</ele><time>2026-04-04T10:31:47.704Z</time></trkpt><trkpt lat="43.5239983" lon="11.4754833"><ele>340.75</ele><time>2026-04-04T10:31:48.704Z</time></trkpt><trkpt lat="43.52409" lon="11.47531"><ele>341.0</ele><time>2026-04-04T10:31:49.704Z</time></trkpt><trkpt lat="43.5241783" lon="11.4751367"><ele>343.6666666666667</ele><time>2026-04-04T10:31:50.704Z</time></trkpt><trkpt lat="43.5242667" lon="11.4749583"><ele>346.3333333333333</ele><time>2026-04-04T10:31:51.704Z</time></trkpt><trkpt lat="43.5243617" lon="11.4747717"><ele>349.0</ele><time>2026-04-04T10:31:52.704Z</time></trkpt><trkpt lat="43.5244583" lon="11.4745833"><ele>347.66666666666663</ele><time>2026-04-04T10:31:53.704Z</time></trkpt><trkpt lat="43.524545" lon="11.4743967"><ele>346.3333333333333</ele><time>2026-04-04T10:31:54.704Z</time></trkpt><trkpt lat="43.52464" lon="11.4742"><ele>345.0</ele><time>2026-04-04T10:31:55.704Z</time></trkpt><trkpt lat="43.524735" lon="11.474015"><ele>345.0</ele><time>2026-04-04T10:31:56.703Z</time></trkpt><trkpt lat="43.5248333" lon="11.4738267"><ele>345.0</ele><time>2026-04-04T10:31:57.703Z</time></trkpt><trkpt lat="43.5249183" lon="11.473645"><ele>345.0</ele><time>2026-04-04T10:31:58.703Z</time></trkpt><trkpt lat="43.5250083" lon="11.4734717"><ele>346.0</ele><time>2026-04-04T10:31:59.704Z</time></trkpt><trkpt lat="43.5250833" lon="11.4733067"><ele>347.0</ele><time>2026-04-04T10:32:00.704Z</time></trkpt><trkpt lat="43.5251583" lon="11.4731417"><ele>348.0</ele><time>2026-04-04T10:32:01.703Z</time></trkpt><trkpt lat="43.5252433" lon="11.4729867"><ele>349.0</ele><time>2026-04-04T10:32:02.703Z</time></trkpt><trkpt lat="43.52533" lon="11.47285"><ele>348.25</ele><time>2026-04-04T10:32:03.703Z</time></trkpt><trkpt lat="43.525445" lon="11.47274"><ele>347.5</ele><time>2026-04-04T10:32:04.704Z</time></trkpt><trkpt lat="43.52557" lon="11.4726683"><ele>346.75</ele><time>2026-04-04T10:32:05.704Z</time></trkpt><trkpt lat="43.525715" lon="11.47264"><ele>346.0</ele><time>2026-04-04T10:32:06.703Z</time></trkpt><trkpt lat="43.5258767" lon="11.4726133"><ele>346.0</ele><time>2026-04-04T10:32:07.703Z</time></trkpt><trkpt lat="43.5260317" lon="11.4725633"><ele>346.0</ele><time>2026-04-04T10:32:08.704Z</time></trkpt><trkpt lat="43.526175" lon="11.4724717"><ele>346.0</ele><time>2026-04-04T10:32:09.704Z</time></trkpt><trkpt lat="43.5262767" lon="11.4723417"><ele>345.5</ele><time>2026-04-04T10:32:10.703Z</time></trkpt><trkpt lat="43.5263583" lon="11.4721833"><ele>345.0</ele><time>2026-04-04T10:32:11.703Z</time></trkpt><trkpt lat="43.5264017" lon="11.4720167"><ele>344.5</ele><time>2026-04-04T10:32:12.703Z</time></trkpt><trkpt lat="43.5264217" lon="11.4718383"><ele>344.0</ele><time>2026-04-04T10:32:13.704Z</time></trkpt><trkpt lat="43.52642" lon="11.47166"><ele>344.0</ele><time>2026-04-04T10:32:14.704Z</time></trkpt><trkpt lat="43.5264033" lon="11.4714883"><ele>344.0</ele><time>2026-04-04T10:32:15.703Z</time></trkpt><trkpt lat="43.5263783" lon="11.4713367"><ele>344.0</ele><time>2026-04-04T10:32:16.704Z</time></trkpt><trkpt lat="43.5263467" lon="11.4711917"><ele>344.0</ele><time>2026-04-04T10:32:17.704Z</time></trkpt><trkpt lat="43.52632" lon="11.4710333"><ele>344.4</ele><time>2026-04-04T10:32:18.704Z</time></trkpt><trkpt lat="43.5263083" lon="11.470875"><ele>344.79999999999995</ele><time>2026-04-04T10:32:19.703Z</time></trkpt><trkpt lat="43.5263067" lon="11.4707267"><ele>345.20000000000005</ele><time>2026-04-04T10:32:20.703Z</time></trkpt><trkpt lat="43.5263283" lon="11.47059"><ele>345.6</ele><time>2026-04-04T10:32:21.703Z</time></trkpt><trkpt lat="43.526365" lon="11.4704833"><ele>346.0</ele><time>2026-04-04T10:32:22.704Z</time></trkpt><trkpt lat="43.52641" lon="11.4704017"><ele>346.4</ele><time>2026-04-04T10:32:23.704Z</time></trkpt><trkpt lat="43.5264967" lon="11.4703267"><ele>346.8</ele><time>2026-04-04T10:32:25.704Z</time></trkpt><trkpt lat="43.526595" lon="11.4702767"><ele>347.2</ele><time>2026-04-04T10:32:27.703Z</time></trkpt><trkpt lat="43.5266583" lon="11.4701333"><ele>347.59999999999997</ele><time>2026-04-04T10:32:29.704Z</time></trkpt><trkpt lat="43.5266617" lon="11.470035"><ele>348.0</ele><time>2026-04-04T10:32:30.704Z</time></trkpt><trkpt lat="43.52667" lon="11.4699233"><ele>348.0</ele><time>2026-04-04T10:32:31.704Z</time></trkpt><trkpt lat="43.5267" lon="11.469805"><ele>348.0</ele><time>2026-04-04T10:32:32.704Z</time></trkpt><trkpt lat="43.52675" lon="11.469675"><ele>348.0</ele><time>2026-04-04T10:32:33.704Z</time></trkpt><trkpt lat="43.5268183" lon="11.469535"><ele>348.0</ele><time>2026-04-04T10:32:34.704Z</time></trkpt><trkpt lat="43.52689" lon="11.4693917"><ele>348.0</ele><time>2026-04-04T10:32:35.703Z</time></trkpt><trkpt lat="43.52699" lon="11.469245"><ele>346.0</ele><time>2026-04-04T10:32:36.704Z</time></trkpt><trkpt lat="43.527105" lon="11.4691217"><ele>344.0</ele><time>2026-04-04T10:32:37.704Z</time></trkpt><trkpt lat="43.5272333" lon="11.4690017"><ele>342.0</ele><time>2026-04-04T10:32:38.704Z</time></trkpt><trkpt lat="43.5273633" lon="11.4688817"><ele>346.0</ele><time>2026-04-04T10:32:39.704Z</time></trkpt><trkpt lat="43.5275" lon="11.4687717"><ele>350.0</ele><time>2026-04-04T10:32:40.703Z</time></trkpt><trkpt lat="43.5276283" lon="11.468665"><ele>354.0</ele><time>2026-04-04T10:32:41.704Z</time></trkpt><trkpt lat="43.5277483" lon="11.4685683"><ele>358.0</ele><time>2026-04-04T10:32:42.704Z</time></trkpt><trkpt lat="43.5278567" lon="11.4684617"><ele>355.75</ele><time>2026-04-04T10:32:43.704Z</time></trkpt><trkpt lat="43.5279583" lon="11.4683517"><ele>353.5</ele><time>2026-04-04T10:32:44.704Z</time></trkpt><trkpt lat="43.5280583" lon="11.46822"><ele>351.25</ele><time>2026-04-04T10:32:45.704Z</time></trkpt><trkpt lat="43.5281567" lon="11.4680767"><ele>349.0</ele><time>2026-04-04T10:32:46.704Z</time></trkpt><trkpt lat="43.528265" lon="11.46792"><ele>349.0</ele><time>2026-04-04T10:32:47.704Z</time></trkpt><trkpt lat="43.52837" lon="11.467765"><ele>349.0</ele><time>2026-04-04T10:32:48.704Z</time></trkpt><trkpt lat="43.5284917" lon="11.4675817"><ele>349.0</ele><time>2026-04-04T10:32:49.703Z</time></trkpt><trkpt lat="43.5286067" lon="11.4673917"><ele>345.3333333333333</ele><time>2026-04-04T10:32:50.703Z</time></trkpt><trkpt lat="43.52873" lon="11.4672183"><ele>341.6666666666667</ele><time>2026-04-04T10:32:51.703Z</time></trkpt><trkpt lat="43.5288567" lon="11.4670533"><ele>338.0</ele><time>2026-04-04T10:32:52.704Z</time></trkpt><trkpt lat="43.5289717" lon="11.46688"><ele>338.0</ele><time>2026-04-04T10:32:53.703Z</time></trkpt><trkpt lat="43.5290667" lon="11.4667017"><ele>338.0</ele><time>2026-04-04T10:32:54.704Z</time></trkpt><trkpt lat="43.529145" lon="11.466495"><ele>338.0</ele><time>2026-04-04T10:32:55.704Z</time></trkpt><trkpt lat="43.5291833" lon="11.4662933"><ele>337.33333333333337</ele><time>2026-04-04T10:32:56.704Z</time></trkpt><trkpt lat="43.5291867" lon="11.46608"><ele>336.6666666666667</ele><time>2026-04-04T10:32:57.704Z</time></trkpt><trkpt lat="43.5291533" lon="11.4658783"><ele>336.0</ele><time>2026-04-04T10:32:58.704Z</time></trkpt><trkpt lat="43.5290783" lon="11.4656833"><ele>336.0</ele><time>2026-04-04T10:32:59.703Z</time></trkpt><trkpt lat="43.5289967" lon="11.46549"><ele>336.0</ele><time>2026-04-04T10:33:00.704Z</time></trkpt><trkpt lat="43.5289083" lon="11.4653133"><ele>336.0</ele><time>2026-04-04T10:33:01.704Z</time></trkpt><trkpt lat="43.528825" lon="11.4651633"><ele>335.75</ele><time>2026-04-04T10:33:02.704Z</time></trkpt><trkpt lat="43.5287317" lon="11.4650567"><ele>335.5</ele><time>2026-04-04T10:33:03.704Z</time></trkpt><trkpt lat="43.5286217" lon="11.4649867"><ele>335.25</ele><time>2026-04-04T10:33:04.704Z</time></trkpt><trkpt lat="43.5285217" lon="11.4649317"><ele>335.0</ele><time>2026-04-04T10:33:05.704Z</time></trkpt><trkpt lat="43.5284217" lon="11.4648683"><ele>335.0</ele><time>2026-04-04T10:33:06.704Z</time></trkpt><trkpt lat="43.52834" lon="11.4647817"><ele>335.0</ele><time>2026-04-04T10:33:07.704Z</time></trkpt><trkpt lat="43.5282833" lon="11.4646717"><ele>335.0</ele><time>2026-04-04T10:33:08.704Z</time></trkpt><trkpt lat="43.52826" lon="11.4645433"><ele>335.0</ele><time>2026-04-04T10:33:09.703Z</time></trkpt><trkpt lat="43.52826" lon="11.464415"><ele>335.0</ele><time>2026-04-04T10:33:10.704Z</time></trkpt><trkpt lat="43.5282817" lon="11.4642733"><ele>334.75</ele><time>2026-04-04T10:33:11.704Z</time></trkpt><trkpt lat="43.5283333" lon="11.464135"><ele>334.5</ele><time>2026-04-04T10:33:12.704Z</time></trkpt><trkpt lat="43.5284117" lon="11.4640033"><ele>334.25</ele><time>2026-04-04T10:33:13.704Z</time></trkpt><trkpt lat="43.5285033" lon="11.4639183"><ele>334.0</ele><time>2026-04-04T10:33:14.704Z</time></trkpt><trkpt lat="43.52861" lon="11.4638767"><ele>331.3333333333333</ele><time>2026-04-04T10:33:15.704Z</time></trkpt><trkpt lat="43.52875" lon="11.4638733"><ele>328.6666666666667</ele><time>2026-04-04T10:33:16.704Z</time></trkpt><trkpt lat="43.5289" lon="11.46391"><ele>326.0</ele><time>2026-04-04T10:33:17.704Z</time></trkpt><trkpt lat="43.529075" lon="11.4639733"><ele>326.0</ele><time>2026-04-04T10:33:18.704Z</time></trkpt><trkpt lat="43.5292533" lon="11.4640267"><ele>326.0</ele><time>2026-04-04T10:33:19.704Z</time></trkpt><trkpt lat="43.5294483" lon="11.4640467"><ele>326.0</ele><time>2026-04-04T10:33:20.704Z</time></trkpt><trkpt lat="43.5296433" lon="11.4640683"><ele>324.33333333333337</ele><time>2026-04-04T10:33:21.704Z</time></trkpt><trkpt lat="43.5298383" lon="11.46409"><ele>322.6666666666667</ele><time>2026-04-04T10:33:22.704Z</time></trkpt><trkpt lat="43.530025" lon="11.4641267"><ele>321.0</ele><time>2026-04-04T10:33:23.704Z</time></trkpt><trkpt lat="43.5302033" lon="11.4641917"><ele>321.0</ele><time>2026-04-04T10:33:24.704Z</time></trkpt><trkpt lat="43.5303733" lon="11.4642883"><ele>321.0</ele><time>2026-04-04T10:33:25.704Z</time></trkpt><trkpt lat="43.5305433" lon="11.4643933"><ele>321.0</ele><time>2026-04-04T10:33:26.704Z</time></trkpt><trkpt lat="43.53072" lon="11.4644933"><ele>317.0</ele><time>2026-04-04T10:33:27.703Z</time></trkpt><trkpt lat="43.530895" lon="11.4645767"><ele>313.0</ele><time>2026-04-04T10:33:28.704Z</time></trkpt><trkpt lat="43.5310717" lon="11.4646367"><ele>309.0</ele><time>2026-04-04T10:33:29.703Z</time></trkpt><trkpt lat="43.5312517" lon="11.464655"><ele>308.3333333333333</ele><time>2026-04-04T10:33:30.703Z</time></trkpt><trkpt lat="43.531425" lon="11.4646133"><ele>307.66666666666663</ele><time>2026-04-04T10:33:31.704Z</time></trkpt><trkpt lat="43.5315883" lon="11.4645317"><ele>307.0</ele><time>2026-04-04T10:33:32.704Z</time></trkpt><trkpt lat="43.5317317" lon="11.4644117"><ele>305.3333333333333</ele><time>2026-04-04T10:33:33.703Z</time></trkpt><trkpt lat="43.531855" lon="11.46426"><ele>303.6666666666667</ele><time>2026-04-04T10:33:34.703Z</time></trkpt><trkpt lat="43.531965" lon="11.4640867"><ele>302.0</ele><time>2026-04-04T10:33:35.704Z</time></trkpt><trkpt lat="43.5320633" lon="11.4639067"><ele>300.0</ele><time>2026-04-04T10:33:36.704Z</time></trkpt><trkpt lat="43.5321533" lon="11.4637217"><ele>298.0</ele><time>2026-04-04T10:33:37.704Z</time></trkpt><trkpt lat="43.53224" lon="11.4635467"><ele>296.0</ele><time>2026-04-04T10:33:38.703Z</time></trkpt><trkpt lat="43.5323283" lon="11.4633683"><ele>296.0</ele><time>2026-04-04T10:33:39.704Z</time></trkpt><trkpt lat="43.5324117" lon="11.463205"><ele>296.0</ele><time>2026-04-04T10:33:40.703Z</time></trkpt><trkpt lat="43.5324833" lon="11.4630533"><ele>296.0</ele><time>2026-04-04T10:33:41.704Z</time></trkpt><trkpt lat="43.5325317" lon="11.4629317"><ele>296.0</ele><time>2026-04-04T10:33:42.704Z</time></trkpt><trkpt lat="43.5325867" lon="11.4628183"><ele>298.0</ele><time>2026-04-04T10:33:43.704Z</time></trkpt><trkpt lat="43.5326217" lon="11.462735"><ele>298.0</ele><time>2026-04-04T10:33:44.704Z</time></trkpt><trkpt lat="43.5326717" lon="11.46266"><ele>298.0</ele><time>2026-04-04T10:33:46.703Z</time></trkpt></trkseg></trk></gpx>